<?xml version="1.0" encoding="utf-8"?>
<gpx xmlns:xsi="http://www.w3.org/2001/XMLSchema-instance" xmlns:xsd="http://www.w3.org/2001/XMLSchema" version="1.1" creator="Shapelink.com" xmlns="http://www.topografix.com/GPX/1/1" xmlns:gpxtpx="http://www.garmin.com/xmlschemas/TrackPointExtension/v1">
  <metadata>
    <name>Ejecutar 5.41 km, 2020-01-24</name>
    <desc></desc>
    <author><name>Peter Littke</name></author> 
    <time>2020-01-24T06:26:17Z</time>
  </metadata>
  <trk>
    <name>Ejecutar 5.41 km, 2020-01-24</name>
    <trkseg>
      <trkpt lat="59.298952" lon="18.081753">
        <ele>21</ele>
        <time>2020-01-24T06:26:17Z</time>
      </trkpt>
      <trkpt lat="59.298967" lon="18.081807">
        <ele>21</ele>
        <time>2020-01-24T06:26:20Z</time>
      </trkpt>
      <trkpt lat="59.298977" lon="18.08184">
        <ele>21</ele>
        <time>2020-01-24T06:26:21Z</time>
      </trkpt>
      <trkpt lat="59.298984" lon="18.081877">
        <ele>21</ele>
        <time>2020-01-24T06:26:21Z</time>
      </trkpt>
      <trkpt lat="59.298997" lon="18.08193">
        <ele>22</ele>
        <time>2020-01-24T06:26:22Z</time>
      </trkpt>
      <trkpt lat="59.299013" lon="18.081997">
        <ele>22</ele>
        <time>2020-01-24T06:26:24Z</time>
      </trkpt>
      <trkpt lat="59.299026" lon="18.082055">
        <ele>22</ele>
        <time>2020-01-24T06:26:24Z</time>
      </trkpt>
      <trkpt lat="59.299025" lon="18.082103">
        <ele>22</ele>
        <time>2020-01-24T06:26:25Z</time>
      </trkpt>
      <trkpt lat="59.299023" lon="18.082163">
        <ele>22</ele>
        <time>2020-01-24T06:26:26Z</time>
      </trkpt>
      <trkpt lat="59.299015" lon="18.082219">
        <ele>23</ele>
        <time>2020-01-24T06:26:27Z</time>
      </trkpt>
      <trkpt lat="59.299002" lon="18.082266">
        <ele>23</ele>
        <time>2020-01-24T06:26:28Z</time>
      </trkpt>
      <trkpt lat="59.298984" lon="18.082306">
        <ele>23</ele>
        <time>2020-01-24T06:26:29Z</time>
      </trkpt>
      <trkpt lat="59.298965" lon="18.082335">
        <ele>24</ele>
        <time>2020-01-24T06:26:30Z</time>
      </trkpt>
      <trkpt lat="59.298946" lon="18.082368">
        <ele>24</ele>
        <time>2020-01-24T06:26:32Z</time>
      </trkpt>
      <trkpt lat="59.298927" lon="18.082402">
        <ele>24</ele>
        <time>2020-01-24T06:26:32Z</time>
      </trkpt>
      <trkpt lat="59.298907" lon="18.082422">
        <ele>24</ele>
        <time>2020-01-24T06:26:33Z</time>
      </trkpt>
      <trkpt lat="59.298888" lon="18.082436">
        <ele>24</ele>
        <time>2020-01-24T06:26:34Z</time>
      </trkpt>
      <trkpt lat="59.298852" lon="18.082464">
        <ele>25</ele>
        <time>2020-01-24T06:26:37Z</time>
      </trkpt>
      <trkpt lat="59.298829" lon="18.082487">
        <ele>25</ele>
        <time>2020-01-24T06:26:38Z</time>
      </trkpt>
      <trkpt lat="59.298805" lon="18.082508">
        <ele>25</ele>
        <time>2020-01-24T06:26:38Z</time>
      </trkpt>
      <trkpt lat="59.298783" lon="18.082537">
        <ele>25</ele>
        <time>2020-01-24T06:26:39Z</time>
      </trkpt>
      <trkpt lat="59.29876" lon="18.082557">
        <ele>25</ele>
        <time>2020-01-24T06:26:40Z</time>
      </trkpt>
      <trkpt lat="59.298738" lon="18.08257">
        <ele>24</ele>
        <time>2020-01-24T06:26:41Z</time>
      </trkpt>
      <trkpt lat="59.298718" lon="18.082591">
        <ele>24</ele>
        <time>2020-01-24T06:26:42Z</time>
      </trkpt>
      <trkpt lat="59.298695" lon="18.082606">
        <ele>24</ele>
        <time>2020-01-24T06:26:43Z</time>
      </trkpt>
      <trkpt lat="59.298676" lon="18.082607">
        <ele>25</ele>
        <time>2020-01-24T06:26:44Z</time>
      </trkpt>
      <trkpt lat="59.298689" lon="18.082568">
        <ele>25</ele>
        <time>2020-01-24T06:26:46Z</time>
      </trkpt>
      <trkpt lat="59.298706" lon="18.082548">
        <ele>25</ele>
        <time>2020-01-24T06:26:47Z</time>
      </trkpt>
      <trkpt lat="59.298742" lon="18.082512">
        <ele>26</ele>
        <time>2020-01-24T06:26:49Z</time>
      </trkpt>
      <trkpt lat="59.298762" lon="18.082485">
        <ele>26</ele>
        <time>2020-01-24T06:26:50Z</time>
      </trkpt>
      <trkpt lat="59.298783" lon="18.082464">
        <ele>26</ele>
        <time>2020-01-24T06:26:51Z</time>
      </trkpt>
      <trkpt lat="59.298808" lon="18.082445">
        <ele>26</ele>
        <time>2020-01-24T06:26:52Z</time>
      </trkpt>
      <trkpt lat="59.298832" lon="18.082424">
        <ele>26</ele>
        <time>2020-01-24T06:26:53Z</time>
      </trkpt>
      <trkpt lat="59.298855" lon="18.082403">
        <ele>26</ele>
        <time>2020-01-24T06:26:54Z</time>
      </trkpt>
      <trkpt lat="59.298881" lon="18.08238">
        <ele>26</ele>
        <time>2020-01-24T06:26:56Z</time>
      </trkpt>
      <trkpt lat="59.298906" lon="18.082357">
        <ele>26</ele>
        <time>2020-01-24T06:26:56Z</time>
      </trkpt>
      <trkpt lat="59.29893" lon="18.082341">
        <ele>26</ele>
        <time>2020-01-24T06:26:58Z</time>
      </trkpt>
      <trkpt lat="59.298954" lon="18.082329">
        <ele>26</ele>
        <time>2020-01-24T06:26:58Z</time>
      </trkpt>
      <trkpt lat="59.298975" lon="18.08232">
        <ele>26</ele>
        <time>2020-01-24T06:26:59Z</time>
      </trkpt>
      <trkpt lat="59.299013" lon="18.082308">
        <ele>26</ele>
        <time>2020-01-24T06:27:01Z</time>
      </trkpt>
      <trkpt lat="59.299035" lon="18.082308">
        <ele>26</ele>
        <time>2020-01-24T06:27:02Z</time>
      </trkpt>
      <trkpt lat="59.299071" lon="18.08232">
        <ele>26</ele>
        <time>2020-01-24T06:27:04Z</time>
      </trkpt>
      <trkpt lat="59.299101" lon="18.082324">
        <ele>26</ele>
        <time>2020-01-24T06:27:05Z</time>
      </trkpt>
      <trkpt lat="59.299129" lon="18.082333">
        <ele>25</ele>
        <time>2020-01-24T06:27:06Z</time>
      </trkpt>
      <trkpt lat="59.299159" lon="18.082347">
        <ele>25</ele>
        <time>2020-01-24T06:27:07Z</time>
      </trkpt>
      <trkpt lat="59.29919" lon="18.08236">
        <ele>25</ele>
        <time>2020-01-24T06:27:08Z</time>
      </trkpt>
      <trkpt lat="59.299216" lon="18.08237">
        <ele>25</ele>
        <time>2020-01-24T06:27:09Z</time>
      </trkpt>
      <trkpt lat="59.299245" lon="18.082384">
        <ele>24</ele>
        <time>2020-01-24T06:27:10Z</time>
      </trkpt>
      <trkpt lat="59.299281" lon="18.082387">
        <ele>24</ele>
        <time>2020-01-24T06:27:12Z</time>
      </trkpt>
      <trkpt lat="59.299323" lon="18.082382">
        <ele>24</ele>
        <time>2020-01-24T06:27:12Z</time>
      </trkpt>
      <trkpt lat="59.299355" lon="18.08237">
        <ele>24</ele>
        <time>2020-01-24T06:27:13Z</time>
      </trkpt>
      <trkpt lat="59.299385" lon="18.082347">
        <ele>24</ele>
        <time>2020-01-24T06:27:15Z</time>
      </trkpt>
      <trkpt lat="59.299414" lon="18.082327">
        <ele>23</ele>
        <time>2020-01-24T06:27:15Z</time>
      </trkpt>
      <trkpt lat="59.299443" lon="18.082307">
        <ele>24</ele>
        <time>2020-01-24T06:27:17Z</time>
      </trkpt>
      <trkpt lat="59.299474" lon="18.08229">
        <ele>24</ele>
        <time>2020-01-24T06:27:17Z</time>
      </trkpt>
      <trkpt lat="59.299504" lon="18.082273">
        <ele>24</ele>
        <time>2020-01-24T06:27:18Z</time>
      </trkpt>
      <trkpt lat="59.299532" lon="18.082248">
        <ele>24</ele>
        <time>2020-01-24T06:27:19Z</time>
      </trkpt>
      <trkpt lat="59.299556" lon="18.082229">
        <ele>24</ele>
        <time>2020-01-24T06:27:20Z</time>
      </trkpt>
      <trkpt lat="59.299581" lon="18.082214">
        <ele>24</ele>
        <time>2020-01-24T06:27:21Z</time>
      </trkpt>
      <trkpt lat="59.299606" lon="18.0822">
        <ele>24</ele>
        <time>2020-01-24T06:27:23Z</time>
      </trkpt>
      <trkpt lat="59.299634" lon="18.082183">
        <ele>24</ele>
        <time>2020-01-24T06:27:23Z</time>
      </trkpt>
      <trkpt lat="59.299664" lon="18.082168">
        <ele>24</ele>
        <time>2020-01-24T06:27:24Z</time>
      </trkpt>
      <trkpt lat="59.299691" lon="18.082159">
        <ele>24</ele>
        <time>2020-01-24T06:27:25Z</time>
      </trkpt>
      <trkpt lat="59.299721" lon="18.082157">
        <ele>24</ele>
        <time>2020-01-24T06:27:26Z</time>
      </trkpt>
      <trkpt lat="59.299754" lon="18.082148">
        <ele>24</ele>
        <time>2020-01-24T06:27:27Z</time>
      </trkpt>
      <trkpt lat="59.299779" lon="18.082145">
        <ele>24</ele>
        <time>2020-01-24T06:27:28Z</time>
      </trkpt>
      <trkpt lat="59.29981" lon="18.082139">
        <ele>24</ele>
        <time>2020-01-24T06:27:29Z</time>
      </trkpt>
      <trkpt lat="59.29984" lon="18.08213">
        <ele>24</ele>
        <time>2020-01-24T06:27:30Z</time>
      </trkpt>
      <trkpt lat="59.299864" lon="18.082109">
        <ele>24</ele>
        <time>2020-01-24T06:27:31Z</time>
      </trkpt>
      <trkpt lat="59.299889" lon="18.082097">
        <ele>25</ele>
        <time>2020-01-24T06:27:32Z</time>
      </trkpt>
      <trkpt lat="59.299912" lon="18.082083">
        <ele>25</ele>
        <time>2020-01-24T06:27:34Z</time>
      </trkpt>
      <trkpt lat="59.299936" lon="18.082067">
        <ele>25</ele>
        <time>2020-01-24T06:27:35Z</time>
      </trkpt>
      <trkpt lat="59.299956" lon="18.082057">
        <ele>25</ele>
        <time>2020-01-24T06:27:35Z</time>
      </trkpt>
      <trkpt lat="59.299975" lon="18.082042">
        <ele>25</ele>
        <time>2020-01-24T06:27:36Z</time>
      </trkpt>
      <trkpt lat="59.299998" lon="18.082019">
        <ele>25</ele>
        <time>2020-01-24T06:27:37Z</time>
      </trkpt>
      <trkpt lat="59.30002" lon="18.08199">
        <ele>25</ele>
        <time>2020-01-24T06:27:38Z</time>
      </trkpt>
      <trkpt lat="59.30004" lon="18.08196">
        <ele>25</ele>
        <time>2020-01-24T06:27:39Z</time>
      </trkpt>
      <trkpt lat="59.300064" lon="18.081942">
        <ele>25</ele>
        <time>2020-01-24T06:27:40Z</time>
      </trkpt>
      <trkpt lat="59.30009" lon="18.081909">
        <ele>26</ele>
        <time>2020-01-24T06:27:41Z</time>
      </trkpt>
      <trkpt lat="59.30012" lon="18.081886">
        <ele>26</ele>
        <time>2020-01-24T06:27:43Z</time>
      </trkpt>
      <trkpt lat="59.300144" lon="18.081863">
        <ele>26</ele>
        <time>2020-01-24T06:27:43Z</time>
      </trkpt>
      <trkpt lat="59.300167" lon="18.08184">
        <ele>26</ele>
        <time>2020-01-24T06:27:44Z</time>
      </trkpt>
      <trkpt lat="59.300187" lon="18.081824">
        <ele>25</ele>
        <time>2020-01-24T06:27:45Z</time>
      </trkpt>
      <trkpt lat="59.300207" lon="18.081806">
        <ele>25</ele>
        <time>2020-01-24T06:27:46Z</time>
      </trkpt>
      <trkpt lat="59.300227" lon="18.081787">
        <ele>25</ele>
        <time>2020-01-24T06:27:47Z</time>
      </trkpt>
      <trkpt lat="59.300249" lon="18.081771">
        <ele>25</ele>
        <time>2020-01-24T06:27:48Z</time>
      </trkpt>
      <trkpt lat="59.30027" lon="18.081759">
        <ele>25</ele>
        <time>2020-01-24T06:27:49Z</time>
      </trkpt>
      <trkpt lat="59.3003" lon="18.081754">
        <ele>25</ele>
        <time>2020-01-24T06:27:51Z</time>
      </trkpt>
      <trkpt lat="59.300325" lon="18.081736">
        <ele>25</ele>
        <time>2020-01-24T06:27:51Z</time>
      </trkpt>
      <trkpt lat="59.30035" lon="18.081715">
        <ele>25</ele>
        <time>2020-01-24T06:27:53Z</time>
      </trkpt>
      <trkpt lat="59.300371" lon="18.081687">
        <ele>25</ele>
        <time>2020-01-24T06:27:53Z</time>
      </trkpt>
      <trkpt lat="59.300392" lon="18.081661">
        <ele>25</ele>
        <time>2020-01-24T06:27:55Z</time>
      </trkpt>
      <trkpt lat="59.30041" lon="18.081643">
        <ele>25</ele>
        <time>2020-01-24T06:27:55Z</time>
      </trkpt>
      <trkpt lat="59.300427" lon="18.081624">
        <ele>24</ele>
        <time>2020-01-24T06:27:56Z</time>
      </trkpt>
      <trkpt lat="59.300446" lon="18.081609">
        <ele>24</ele>
        <time>2020-01-24T06:27:57Z</time>
      </trkpt>
      <trkpt lat="59.300466" lon="18.081598">
        <ele>24</ele>
        <time>2020-01-24T06:27:58Z</time>
      </trkpt>
      <trkpt lat="59.300488" lon="18.081577">
        <ele>24</ele>
        <time>2020-01-24T06:27:59Z</time>
      </trkpt>
      <trkpt lat="59.300512" lon="18.081559">
        <ele>24</ele>
        <time>2020-01-24T06:28:00Z</time>
      </trkpt>
      <trkpt lat="59.300533" lon="18.08155">
        <ele>24</ele>
        <time>2020-01-24T06:28:01Z</time>
      </trkpt>
      <trkpt lat="59.300557" lon="18.081543">
        <ele>24</ele>
        <time>2020-01-24T06:28:02Z</time>
      </trkpt>
      <trkpt lat="59.300578" lon="18.081525">
        <ele>23</ele>
        <time>2020-01-24T06:28:03Z</time>
      </trkpt>
      <trkpt lat="59.300598" lon="18.08151">
        <ele>23</ele>
        <time>2020-01-24T06:28:04Z</time>
      </trkpt>
      <trkpt lat="59.300624" lon="18.081487">
        <ele>23</ele>
        <time>2020-01-24T06:28:05Z</time>
      </trkpt>
      <trkpt lat="59.300647" lon="18.081462">
        <ele>23</ele>
        <time>2020-01-24T06:28:06Z</time>
      </trkpt>
      <trkpt lat="59.30067" lon="18.081439">
        <ele>23</ele>
        <time>2020-01-24T06:28:08Z</time>
      </trkpt>
      <trkpt lat="59.300694" lon="18.081413">
        <ele>23</ele>
        <time>2020-01-24T06:28:08Z</time>
      </trkpt>
      <trkpt lat="59.300719" lon="18.081402">
        <ele>23</ele>
        <time>2020-01-24T06:28:09Z</time>
      </trkpt>
      <trkpt lat="59.300744" lon="18.081384">
        <ele>23</ele>
        <time>2020-01-24T06:28:10Z</time>
      </trkpt>
      <trkpt lat="59.300768" lon="18.081358">
        <ele>23</ele>
        <time>2020-01-24T06:28:12Z</time>
      </trkpt>
      <trkpt lat="59.300791" lon="18.081328">
        <ele>23</ele>
        <time>2020-01-24T06:28:12Z</time>
      </trkpt>
      <trkpt lat="59.300815" lon="18.081304">
        <ele>23</ele>
        <time>2020-01-24T06:28:13Z</time>
      </trkpt>
      <trkpt lat="59.300833" lon="18.081277">
        <ele>22</ele>
        <time>2020-01-24T06:28:15Z</time>
      </trkpt>
      <trkpt lat="59.300851" lon="18.081254">
        <ele>22</ele>
        <time>2020-01-24T06:28:15Z</time>
      </trkpt>
      <trkpt lat="59.300873" lon="18.08123">
        <ele>22</ele>
        <time>2020-01-24T06:28:16Z</time>
      </trkpt>
      <trkpt lat="59.300894" lon="18.0812">
        <ele>22</ele>
        <time>2020-01-24T06:28:17Z</time>
      </trkpt>
      <trkpt lat="59.300915" lon="18.081176">
        <ele>21</ele>
        <time>2020-01-24T06:28:18Z</time>
      </trkpt>
      <trkpt lat="59.300938" lon="18.081142">
        <ele>21</ele>
        <time>2020-01-24T06:28:19Z</time>
      </trkpt>
      <trkpt lat="59.300961" lon="18.08111">
        <ele>21</ele>
        <time>2020-01-24T06:28:20Z</time>
      </trkpt>
      <trkpt lat="59.300981" lon="18.081075">
        <ele>21</ele>
        <time>2020-01-24T06:28:21Z</time>
      </trkpt>
      <trkpt lat="59.301005" lon="18.081049">
        <ele>21</ele>
        <time>2020-01-24T06:28:23Z</time>
      </trkpt>
      <trkpt lat="59.301023" lon="18.081028">
        <ele>21</ele>
        <time>2020-01-24T06:28:23Z</time>
      </trkpt>
      <trkpt lat="59.301043" lon="18.081004">
        <ele>20</ele>
        <time>2020-01-24T06:28:24Z</time>
      </trkpt>
      <trkpt lat="59.301062" lon="18.080981">
        <ele>20</ele>
        <time>2020-01-24T06:28:25Z</time>
      </trkpt>
      <trkpt lat="59.30108" lon="18.080953">
        <ele>20</ele>
        <time>2020-01-24T06:28:26Z</time>
      </trkpt>
      <trkpt lat="59.301101" lon="18.080938">
        <ele>20</ele>
        <time>2020-01-24T06:28:27Z</time>
      </trkpt>
      <trkpt lat="59.301121" lon="18.080922">
        <ele>20</ele>
        <time>2020-01-24T06:28:28Z</time>
      </trkpt>
      <trkpt lat="59.301148" lon="18.080896">
        <ele>20</ele>
        <time>2020-01-24T06:28:29Z</time>
      </trkpt>
      <trkpt lat="59.301172" lon="18.080879">
        <ele>19</ele>
        <time>2020-01-24T06:28:31Z</time>
      </trkpt>
      <trkpt lat="59.301196" lon="18.08086">
        <ele>20</ele>
        <time>2020-01-24T06:28:31Z</time>
      </trkpt>
      <trkpt lat="59.301225" lon="18.080853">
        <ele>20</ele>
        <time>2020-01-24T06:28:32Z</time>
      </trkpt>
      <trkpt lat="59.30125" lon="18.080842">
        <ele>20</ele>
        <time>2020-01-24T06:28:33Z</time>
      </trkpt>
      <trkpt lat="59.301271" lon="18.080825">
        <ele>20</ele>
        <time>2020-01-24T06:28:35Z</time>
      </trkpt>
      <trkpt lat="59.301294" lon="18.080806">
        <ele>20</ele>
        <time>2020-01-24T06:28:35Z</time>
      </trkpt>
      <trkpt lat="59.301318" lon="18.08079">
        <ele>20</ele>
        <time>2020-01-24T06:28:36Z</time>
      </trkpt>
      <trkpt lat="59.301339" lon="18.080768">
        <ele>20</ele>
        <time>2020-01-24T06:28:37Z</time>
      </trkpt>
      <trkpt lat="59.301362" lon="18.080744">
        <ele>20</ele>
        <time>2020-01-24T06:28:38Z</time>
      </trkpt>
      <trkpt lat="59.301381" lon="18.080719">
        <ele>20</ele>
        <time>2020-01-24T06:28:40Z</time>
      </trkpt>
      <trkpt lat="59.301405" lon="18.080695">
        <ele>20</ele>
        <time>2020-01-24T06:28:40Z</time>
      </trkpt>
      <trkpt lat="59.301429" lon="18.080676">
        <ele>20</ele>
        <time>2020-01-24T06:28:41Z</time>
      </trkpt>
      <trkpt lat="59.301453" lon="18.080655">
        <ele>20</ele>
        <time>2020-01-24T06:28:43Z</time>
      </trkpt>
      <trkpt lat="59.30148" lon="18.080634">
        <ele>20</ele>
        <time>2020-01-24T06:28:43Z</time>
      </trkpt>
      <trkpt lat="59.301507" lon="18.080618">
        <ele>21</ele>
        <time>2020-01-24T06:28:44Z</time>
      </trkpt>
      <trkpt lat="59.30153" lon="18.080601">
        <ele>21</ele>
        <time>2020-01-24T06:28:45Z</time>
      </trkpt>
      <trkpt lat="59.301554" lon="18.080586">
        <ele>21</ele>
        <time>2020-01-24T06:28:46Z</time>
      </trkpt>
      <trkpt lat="59.301578" lon="18.080571">
        <ele>21</ele>
        <time>2020-01-24T06:28:47Z</time>
      </trkpt>
      <trkpt lat="59.3016" lon="18.080551">
        <ele>22</ele>
        <time>2020-01-24T06:28:48Z</time>
      </trkpt>
      <trkpt lat="59.301626" lon="18.080535">
        <ele>22</ele>
        <time>2020-01-24T06:28:50Z</time>
      </trkpt>
      <trkpt lat="59.301652" lon="18.080525">
        <ele>22</ele>
        <time>2020-01-24T06:28:50Z</time>
      </trkpt>
      <trkpt lat="59.301674" lon="18.080503">
        <ele>22</ele>
        <time>2020-01-24T06:28:51Z</time>
      </trkpt>
      <trkpt lat="59.301695" lon="18.080486">
        <ele>23</ele>
        <time>2020-01-24T06:28:52Z</time>
      </trkpt>
      <trkpt lat="59.301715" lon="18.080471">
        <ele>23</ele>
        <time>2020-01-24T06:28:53Z</time>
      </trkpt>
      <trkpt lat="59.301737" lon="18.080452">
        <ele>23</ele>
        <time>2020-01-24T06:28:55Z</time>
      </trkpt>
      <trkpt lat="59.30176" lon="18.080443">
        <ele>23</ele>
        <time>2020-01-24T06:28:55Z</time>
      </trkpt>
      <trkpt lat="59.301786" lon="18.080432">
        <ele>24</ele>
        <time>2020-01-24T06:28:56Z</time>
      </trkpt>
      <trkpt lat="59.30181" lon="18.080414">
        <ele>24</ele>
        <time>2020-01-24T06:28:57Z</time>
      </trkpt>
      <trkpt lat="59.301831" lon="18.080394">
        <ele>24</ele>
        <time>2020-01-24T06:28:58Z</time>
      </trkpt>
      <trkpt lat="59.301853" lon="18.080374">
        <ele>24</ele>
        <time>2020-01-24T06:28:59Z</time>
      </trkpt>
      <trkpt lat="59.301871" lon="18.080357">
        <ele>24</ele>
        <time>2020-01-24T06:29:01Z</time>
      </trkpt>
      <trkpt lat="59.301895" lon="18.080337">
        <ele>24</ele>
        <time>2020-01-24T06:29:01Z</time>
      </trkpt>
      <trkpt lat="59.301922" lon="18.080319">
        <ele>24</ele>
        <time>2020-01-24T06:29:02Z</time>
      </trkpt>
      <trkpt lat="59.301944" lon="18.080303">
        <ele>24</ele>
        <time>2020-01-24T06:29:03Z</time>
      </trkpt>
      <trkpt lat="59.301966" lon="18.080292">
        <ele>24</ele>
        <time>2020-01-24T06:29:04Z</time>
      </trkpt>
      <trkpt lat="59.301988" lon="18.080276">
        <ele>25</ele>
        <time>2020-01-24T06:29:06Z</time>
      </trkpt>
      <trkpt lat="59.302009" lon="18.080263">
        <ele>25</ele>
        <time>2020-01-24T06:29:06Z</time>
      </trkpt>
      <trkpt lat="59.302032" lon="18.08025">
        <ele>25</ele>
        <time>2020-01-24T06:29:07Z</time>
      </trkpt>
      <trkpt lat="59.302056" lon="18.080243">
        <ele>25</ele>
        <time>2020-01-24T06:29:09Z</time>
      </trkpt>
      <trkpt lat="59.302077" lon="18.080232">
        <ele>25</ele>
        <time>2020-01-24T06:29:09Z</time>
      </trkpt>
      <trkpt lat="59.302099" lon="18.080218">
        <ele>25</ele>
        <time>2020-01-24T06:29:10Z</time>
      </trkpt>
      <trkpt lat="59.302122" lon="18.080201">
        <ele>26</ele>
        <time>2020-01-24T06:29:11Z</time>
      </trkpt>
      <trkpt lat="59.302147" lon="18.080186">
        <ele>26</ele>
        <time>2020-01-24T06:29:12Z</time>
      </trkpt>
      <trkpt lat="59.302172" lon="18.080169">
        <ele>26</ele>
        <time>2020-01-24T06:29:13Z</time>
      </trkpt>
      <trkpt lat="59.302196" lon="18.080152">
        <ele>26</ele>
        <time>2020-01-24T06:29:15Z</time>
      </trkpt>
      <trkpt lat="59.30222" lon="18.080136">
        <ele>26</ele>
        <time>2020-01-24T06:29:15Z</time>
      </trkpt>
      <trkpt lat="59.302242" lon="18.080125">
        <ele>26</ele>
        <time>2020-01-24T06:29:16Z</time>
      </trkpt>
      <trkpt lat="59.302266" lon="18.080112">
        <ele>26</ele>
        <time>2020-01-24T06:29:17Z</time>
      </trkpt>
      <trkpt lat="59.302293" lon="18.080106">
        <ele>26</ele>
        <time>2020-01-24T06:29:18Z</time>
      </trkpt>
      <trkpt lat="59.302321" lon="18.080101">
        <ele>26</ele>
        <time>2020-01-24T06:29:19Z</time>
      </trkpt>
      <trkpt lat="59.302348" lon="18.080092">
        <ele>26</ele>
        <time>2020-01-24T06:29:20Z</time>
      </trkpt>
      <trkpt lat="59.302371" lon="18.080082">
        <ele>26</ele>
        <time>2020-01-24T06:29:21Z</time>
      </trkpt>
      <trkpt lat="59.302396" lon="18.080067">
        <ele>27</ele>
        <time>2020-01-24T06:29:23Z</time>
      </trkpt>
      <trkpt lat="59.302421" lon="18.080045">
        <ele>27</ele>
        <time>2020-01-24T06:29:23Z</time>
      </trkpt>
      <trkpt lat="59.302446" lon="18.08003">
        <ele>27</ele>
        <time>2020-01-24T06:29:24Z</time>
      </trkpt>
      <trkpt lat="59.302468" lon="18.08001">
        <ele>27</ele>
        <time>2020-01-24T06:29:26Z</time>
      </trkpt>
      <trkpt lat="59.302494" lon="18.079986">
        <ele>27</ele>
        <time>2020-01-24T06:29:26Z</time>
      </trkpt>
      <trkpt lat="59.302517" lon="18.07996">
        <ele>27</ele>
        <time>2020-01-24T06:29:28Z</time>
      </trkpt>
      <trkpt lat="59.302543" lon="18.07993">
        <ele>27</ele>
        <time>2020-01-24T06:29:28Z</time>
      </trkpt>
      <trkpt lat="59.302565" lon="18.079906">
        <ele>28</ele>
        <time>2020-01-24T06:29:29Z</time>
      </trkpt>
      <trkpt lat="59.302588" lon="18.079888">
        <ele>28</ele>
        <time>2020-01-24T06:29:30Z</time>
      </trkpt>
      <trkpt lat="59.30261" lon="18.079877">
        <ele>28</ele>
        <time>2020-01-24T06:29:31Z</time>
      </trkpt>
      <trkpt lat="59.302634" lon="18.079861">
        <ele>28</ele>
        <time>2020-01-24T06:29:32Z</time>
      </trkpt>
      <trkpt lat="59.302657" lon="18.07985">
        <ele>28</ele>
        <time>2020-01-24T06:29:33Z</time>
      </trkpt>
      <trkpt lat="59.302682" lon="18.079838">
        <ele>28</ele>
        <time>2020-01-24T06:29:35Z</time>
      </trkpt>
      <trkpt lat="59.302706" lon="18.079825">
        <ele>28</ele>
        <time>2020-01-24T06:29:35Z</time>
      </trkpt>
      <trkpt lat="59.302733" lon="18.07981">
        <ele>28</ele>
        <time>2020-01-24T06:29:36Z</time>
      </trkpt>
      <trkpt lat="59.302759" lon="18.079804">
        <ele>28</ele>
        <time>2020-01-24T06:29:37Z</time>
      </trkpt>
      <trkpt lat="59.302784" lon="18.0798">
        <ele>28</ele>
        <time>2020-01-24T06:29:38Z</time>
      </trkpt>
      <trkpt lat="59.302807" lon="18.079792">
        <ele>28</ele>
        <time>2020-01-24T06:29:40Z</time>
      </trkpt>
      <trkpt lat="59.302827" lon="18.079778">
        <ele>28</ele>
        <time>2020-01-24T06:29:40Z</time>
      </trkpt>
      <trkpt lat="59.302851" lon="18.079766">
        <ele>28</ele>
        <time>2020-01-24T06:29:41Z</time>
      </trkpt>
      <trkpt lat="59.302875" lon="18.079752">
        <ele>28</ele>
        <time>2020-01-24T06:29:43Z</time>
      </trkpt>
      <trkpt lat="59.3029" lon="18.079737">
        <ele>28</ele>
        <time>2020-01-24T06:29:43Z</time>
      </trkpt>
      <trkpt lat="59.302923" lon="18.079725">
        <ele>28</ele>
        <time>2020-01-24T06:29:44Z</time>
      </trkpt>
      <trkpt lat="59.302947" lon="18.079712">
        <ele>28</ele>
        <time>2020-01-24T06:29:45Z</time>
      </trkpt>
      <trkpt lat="59.302968" lon="18.079696">
        <ele>28</ele>
        <time>2020-01-24T06:29:47Z</time>
      </trkpt>
      <trkpt lat="59.302989" lon="18.079685">
        <ele>28</ele>
        <time>2020-01-24T06:29:47Z</time>
      </trkpt>
      <trkpt lat="59.303012" lon="18.079664">
        <ele>28</ele>
        <time>2020-01-24T06:29:48Z</time>
      </trkpt>
      <trkpt lat="59.303034" lon="18.079647">
        <ele>28</ele>
        <time>2020-01-24T06:29:49Z</time>
      </trkpt>
      <trkpt lat="59.303057" lon="18.079628">
        <ele>28</ele>
        <time>2020-01-24T06:29:50Z</time>
      </trkpt>
      <trkpt lat="59.303085" lon="18.079617">
        <ele>28</ele>
        <time>2020-01-24T06:29:51Z</time>
      </trkpt>
      <trkpt lat="59.30311" lon="18.079601">
        <ele>28</ele>
        <time>2020-01-24T06:29:52Z</time>
      </trkpt>
      <trkpt lat="59.303135" lon="18.079592">
        <ele>28</ele>
        <time>2020-01-24T06:29:53Z</time>
      </trkpt>
      <trkpt lat="59.30316" lon="18.079578">
        <ele>28</ele>
        <time>2020-01-24T06:29:55Z</time>
      </trkpt>
      <trkpt lat="59.303183" lon="18.079559">
        <ele>28</ele>
        <time>2020-01-24T06:29:55Z</time>
      </trkpt>
      <trkpt lat="59.303208" lon="18.079542">
        <ele>27</ele>
        <time>2020-01-24T06:29:56Z</time>
      </trkpt>
      <trkpt lat="59.303233" lon="18.079529">
        <ele>27</ele>
        <time>2020-01-24T06:29:57Z</time>
      </trkpt>
      <trkpt lat="59.303259" lon="18.079514">
        <ele>27</ele>
        <time>2020-01-24T06:29:58Z</time>
      </trkpt>
      <trkpt lat="59.303287" lon="18.079503">
        <ele>27</ele>
        <time>2020-01-24T06:29:59Z</time>
      </trkpt>
      <trkpt lat="59.303313" lon="18.079486">
        <ele>27</ele>
        <time>2020-01-24T06:30:01Z</time>
      </trkpt>
      <trkpt lat="59.303338" lon="18.079471">
        <ele>27</ele>
        <time>2020-01-24T06:30:01Z</time>
      </trkpt>
      <trkpt lat="59.303362" lon="18.079457">
        <ele>27</ele>
        <time>2020-01-24T06:30:02Z</time>
      </trkpt>
      <trkpt lat="59.303388" lon="18.079437">
        <ele>27</ele>
        <time>2020-01-24T06:30:03Z</time>
      </trkpt>
      <trkpt lat="59.303413" lon="18.079414">
        <ele>27</ele>
        <time>2020-01-24T06:30:04Z</time>
      </trkpt>
      <trkpt lat="59.303436" lon="18.079396">
        <ele>27</ele>
        <time>2020-01-24T06:30:06Z</time>
      </trkpt>
      <trkpt lat="59.303461" lon="18.079377">
        <ele>27</ele>
        <time>2020-01-24T06:30:06Z</time>
      </trkpt>
      <trkpt lat="59.303488" lon="18.07936">
        <ele>27</ele>
        <time>2020-01-24T06:30:08Z</time>
      </trkpt>
      <trkpt lat="59.303515" lon="18.079344">
        <ele>27</ele>
        <time>2020-01-24T06:30:08Z</time>
      </trkpt>
      <trkpt lat="59.303544" lon="18.079328">
        <ele>27</ele>
        <time>2020-01-24T06:30:09Z</time>
      </trkpt>
      <trkpt lat="59.303572" lon="18.079309">
        <ele>27</ele>
        <time>2020-01-24T06:30:10Z</time>
      </trkpt>
      <trkpt lat="59.303599" lon="18.079288">
        <ele>27</ele>
        <time>2020-01-24T06:30:11Z</time>
      </trkpt>
      <trkpt lat="59.303625" lon="18.079271">
        <ele>27</ele>
        <time>2020-01-24T06:30:13Z</time>
      </trkpt>
      <trkpt lat="59.303652" lon="18.079258">
        <ele>27</ele>
        <time>2020-01-24T06:30:13Z</time>
      </trkpt>
      <trkpt lat="59.303675" lon="18.079247">
        <ele>27</ele>
        <time>2020-01-24T06:30:14Z</time>
      </trkpt>
      <trkpt lat="59.3037" lon="18.079233">
        <ele>27</ele>
        <time>2020-01-24T06:30:16Z</time>
      </trkpt>
      <trkpt lat="59.303728" lon="18.079217">
        <ele>26</ele>
        <time>2020-01-24T06:30:16Z</time>
      </trkpt>
      <trkpt lat="59.303753" lon="18.0792">
        <ele>26</ele>
        <time>2020-01-24T06:30:17Z</time>
      </trkpt>
      <trkpt lat="59.30378" lon="18.079181">
        <ele>26</ele>
        <time>2020-01-24T06:30:18Z</time>
      </trkpt>
      <trkpt lat="59.303805" lon="18.079168">
        <ele>26</ele>
        <time>2020-01-24T06:30:19Z</time>
      </trkpt>
      <trkpt lat="59.303831" lon="18.079155">
        <ele>26</ele>
        <time>2020-01-24T06:30:20Z</time>
      </trkpt>
      <trkpt lat="59.303857" lon="18.079138">
        <ele>26</ele>
        <time>2020-01-24T06:30:21Z</time>
      </trkpt>
      <trkpt lat="59.303882" lon="18.079122">
        <ele>26</ele>
        <time>2020-01-24T06:30:22Z</time>
      </trkpt>
      <trkpt lat="59.303909" lon="18.079097">
        <ele>26</ele>
        <time>2020-01-24T06:30:24Z</time>
      </trkpt>
      <trkpt lat="59.303935" lon="18.07908">
        <ele>26</ele>
        <time>2020-01-24T06:30:25Z</time>
      </trkpt>
      <trkpt lat="59.303961" lon="18.079065">
        <ele>26</ele>
        <time>2020-01-24T06:30:25Z</time>
      </trkpt>
      <trkpt lat="59.303987" lon="18.079052">
        <ele>26</ele>
        <time>2020-01-24T06:30:26Z</time>
      </trkpt>
      <trkpt lat="59.304013" lon="18.079038">
        <ele>26</ele>
        <time>2020-01-24T06:30:27Z</time>
      </trkpt>
      <trkpt lat="59.30404" lon="18.079023">
        <ele>26</ele>
        <time>2020-01-24T06:30:28Z</time>
      </trkpt>
      <trkpt lat="59.304067" lon="18.079006">
        <ele>26</ele>
        <time>2020-01-24T06:30:29Z</time>
      </trkpt>
      <trkpt lat="59.304094" lon="18.078991">
        <ele>26</ele>
        <time>2020-01-24T06:30:30Z</time>
      </trkpt>
      <trkpt lat="59.304118" lon="18.078973">
        <ele>26</ele>
        <time>2020-01-24T06:30:32Z</time>
      </trkpt>
      <trkpt lat="59.304146" lon="18.078954">
        <ele>26</ele>
        <time>2020-01-24T06:30:32Z</time>
      </trkpt>
      <trkpt lat="59.304175" lon="18.078934">
        <ele>26</ele>
        <time>2020-01-24T06:30:33Z</time>
      </trkpt>
      <trkpt lat="59.304202" lon="18.07892">
        <ele>26</ele>
        <time>2020-01-24T06:30:34Z</time>
      </trkpt>
      <trkpt lat="59.304228" lon="18.0789">
        <ele>26</ele>
        <time>2020-01-24T06:30:35Z</time>
      </trkpt>
      <trkpt lat="59.304251" lon="18.078879">
        <ele>26</ele>
        <time>2020-01-24T06:30:36Z</time>
      </trkpt>
      <trkpt lat="59.304277" lon="18.07886">
        <ele>26</ele>
        <time>2020-01-24T06:30:37Z</time>
      </trkpt>
      <trkpt lat="59.304301" lon="18.078836">
        <ele>26</ele>
        <time>2020-01-24T06:30:38Z</time>
      </trkpt>
      <trkpt lat="59.304327" lon="18.078819">
        <ele>26</ele>
        <time>2020-01-24T06:30:39Z</time>
      </trkpt>
      <trkpt lat="59.304352" lon="18.078807">
        <ele>25</ele>
        <time>2020-01-24T06:30:41Z</time>
      </trkpt>
      <trkpt lat="59.304379" lon="18.078792">
        <ele>25</ele>
        <time>2020-01-24T06:30:41Z</time>
      </trkpt>
      <trkpt lat="59.304406" lon="18.078776">
        <ele>25</ele>
        <time>2020-01-24T06:30:42Z</time>
      </trkpt>
      <trkpt lat="59.304431" lon="18.07876">
        <ele>25</ele>
        <time>2020-01-24T06:30:44Z</time>
      </trkpt>
      <trkpt lat="59.304457" lon="18.078741">
        <ele>25</ele>
        <time>2020-01-24T06:30:44Z</time>
      </trkpt>
      <trkpt lat="59.304482" lon="18.078725">
        <ele>25</ele>
        <time>2020-01-24T06:30:46Z</time>
      </trkpt>
      <trkpt lat="59.304509" lon="18.078711">
        <ele>25</ele>
        <time>2020-01-24T06:30:46Z</time>
      </trkpt>
      <trkpt lat="59.304536" lon="18.078697">
        <ele>25</ele>
        <time>2020-01-24T06:30:47Z</time>
      </trkpt>
      <trkpt lat="59.304563" lon="18.07868">
        <ele>25</ele>
        <time>2020-01-24T06:30:48Z</time>
      </trkpt>
      <trkpt lat="59.304589" lon="18.078664">
        <ele>25</ele>
        <time>2020-01-24T06:30:50Z</time>
      </trkpt>
      <trkpt lat="59.304614" lon="18.078647">
        <ele>25</ele>
        <time>2020-01-24T06:30:50Z</time>
      </trkpt>
      <trkpt lat="59.304641" lon="18.078632">
        <ele>25</ele>
        <time>2020-01-24T06:30:51Z</time>
      </trkpt>
      <trkpt lat="59.304668" lon="18.078617">
        <ele>25</ele>
        <time>2020-01-24T06:30:52Z</time>
      </trkpt>
      <trkpt lat="59.304695" lon="18.078605">
        <ele>25</ele>
        <time>2020-01-24T06:30:53Z</time>
      </trkpt>
      <trkpt lat="59.304722" lon="18.078586">
        <ele>25</ele>
        <time>2020-01-24T06:30:54Z</time>
      </trkpt>
      <trkpt lat="59.30475" lon="18.078569">
        <ele>24</ele>
        <time>2020-01-24T06:30:55Z</time>
      </trkpt>
      <trkpt lat="59.304777" lon="18.078559">
        <ele>25</ele>
        <time>2020-01-24T06:30:56Z</time>
      </trkpt>
      <trkpt lat="59.304799" lon="18.078544">
        <ele>24</ele>
        <time>2020-01-24T06:30:58Z</time>
      </trkpt>
      <trkpt lat="59.304826" lon="18.078529">
        <ele>24</ele>
        <time>2020-01-24T06:30:58Z</time>
      </trkpt>
      <trkpt lat="59.304854" lon="18.07851">
        <ele>24</ele>
        <time>2020-01-24T06:30:59Z</time>
      </trkpt>
      <trkpt lat="59.304882" lon="18.078493">
        <ele>24</ele>
        <time>2020-01-24T06:31:00Z</time>
      </trkpt>
      <trkpt lat="59.304911" lon="18.078475">
        <ele>24</ele>
        <time>2020-01-24T06:31:01Z</time>
      </trkpt>
      <trkpt lat="59.304936" lon="18.078461">
        <ele>24</ele>
        <time>2020-01-24T06:31:03Z</time>
      </trkpt>
      <trkpt lat="59.30496" lon="18.078442">
        <ele>24</ele>
        <time>2020-01-24T06:31:03Z</time>
      </trkpt>
      <trkpt lat="59.304984" lon="18.07842">
        <ele>24</ele>
        <time>2020-01-24T06:31:04Z</time>
      </trkpt>
      <trkpt lat="59.305011" lon="18.078402">
        <ele>24</ele>
        <time>2020-01-24T06:31:05Z</time>
      </trkpt>
      <trkpt lat="59.305038" lon="18.078387">
        <ele>24</ele>
        <time>2020-01-24T06:31:06Z</time>
      </trkpt>
      <trkpt lat="59.305066" lon="18.078372">
        <ele>24</ele>
        <time>2020-01-24T06:31:08Z</time>
      </trkpt>
      <trkpt lat="59.305094" lon="18.078358">
        <ele>24</ele>
        <time>2020-01-24T06:31:08Z</time>
      </trkpt>
      <trkpt lat="59.305121" lon="18.078344">
        <ele>24</ele>
        <time>2020-01-24T06:31:09Z</time>
      </trkpt>
      <trkpt lat="59.305146" lon="18.078334">
        <ele>24</ele>
        <time>2020-01-24T06:31:10Z</time>
      </trkpt>
      <trkpt lat="59.305168" lon="18.07832">
        <ele>23</ele>
        <time>2020-01-24T06:31:11Z</time>
      </trkpt>
      <trkpt lat="59.305194" lon="18.078305">
        <ele>23</ele>
        <time>2020-01-24T06:31:12Z</time>
      </trkpt>
      <trkpt lat="59.305221" lon="18.078289">
        <ele>23</ele>
        <time>2020-01-24T06:31:13Z</time>
      </trkpt>
      <trkpt lat="59.305247" lon="18.078272">
        <ele>23</ele>
        <time>2020-01-24T06:31:14Z</time>
      </trkpt>
      <trkpt lat="59.305275" lon="18.078258">
        <ele>23</ele>
        <time>2020-01-24T06:31:15Z</time>
      </trkpt>
      <trkpt lat="59.305304" lon="18.078241">
        <ele>23</ele>
        <time>2020-01-24T06:31:16Z</time>
      </trkpt>
      <trkpt lat="59.305332" lon="18.078221">
        <ele>23</ele>
        <time>2020-01-24T06:31:17Z</time>
      </trkpt>
      <trkpt lat="59.305357" lon="18.078205">
        <ele>23</ele>
        <time>2020-01-24T06:31:19Z</time>
      </trkpt>
      <trkpt lat="59.305384" lon="18.07819">
        <ele>23</ele>
        <time>2020-01-24T06:31:19Z</time>
      </trkpt>
      <trkpt lat="59.305413" lon="18.07818">
        <ele>23</ele>
        <time>2020-01-24T06:31:20Z</time>
      </trkpt>
      <trkpt lat="59.30544" lon="18.07816">
        <ele>22</ele>
        <time>2020-01-24T06:31:22Z</time>
      </trkpt>
      <trkpt lat="59.305466" lon="18.078139">
        <ele>22</ele>
        <time>2020-01-24T06:31:22Z</time>
      </trkpt>
      <trkpt lat="59.305491" lon="18.078123">
        <ele>22</ele>
        <time>2020-01-24T06:31:24Z</time>
      </trkpt>
      <trkpt lat="59.305517" lon="18.078106">
        <ele>22</ele>
        <time>2020-01-24T06:31:24Z</time>
      </trkpt>
      <trkpt lat="59.305543" lon="18.078086">
        <ele>22</ele>
        <time>2020-01-24T06:31:26Z</time>
      </trkpt>
      <trkpt lat="59.305569" lon="18.078064">
        <ele>22</ele>
        <time>2020-01-24T06:31:26Z</time>
      </trkpt>
      <trkpt lat="59.305594" lon="18.078043">
        <ele>22</ele>
        <time>2020-01-24T06:31:27Z</time>
      </trkpt>
      <trkpt lat="59.305621" lon="18.078031">
        <ele>22</ele>
        <time>2020-01-24T06:31:28Z</time>
      </trkpt>
      <trkpt lat="59.305649" lon="18.078016">
        <ele>22</ele>
        <time>2020-01-24T06:31:29Z</time>
      </trkpt>
      <trkpt lat="59.305676" lon="18.077998">
        <ele>21</ele>
        <time>2020-01-24T06:31:30Z</time>
      </trkpt>
      <trkpt lat="59.305702" lon="18.07798">
        <ele>21</ele>
        <time>2020-01-24T06:31:31Z</time>
      </trkpt>
      <trkpt lat="59.305727" lon="18.077961">
        <ele>21</ele>
        <time>2020-01-24T06:31:32Z</time>
      </trkpt>
      <trkpt lat="59.305753" lon="18.077944">
        <ele>21</ele>
        <time>2020-01-24T06:31:34Z</time>
      </trkpt>
      <trkpt lat="59.305779" lon="18.077928">
        <ele>21</ele>
        <time>2020-01-24T06:31:34Z</time>
      </trkpt>
      <trkpt lat="59.305806" lon="18.077907">
        <ele>21</ele>
        <time>2020-01-24T06:31:35Z</time>
      </trkpt>
      <trkpt lat="59.305834" lon="18.077886">
        <ele>21</ele>
        <time>2020-01-24T06:31:36Z</time>
      </trkpt>
      <trkpt lat="59.305862" lon="18.077865">
        <ele>21</ele>
        <time>2020-01-24T06:31:37Z</time>
      </trkpt>
      <trkpt lat="59.305889" lon="18.077848">
        <ele>21</ele>
        <time>2020-01-24T06:31:38Z</time>
      </trkpt>
      <trkpt lat="59.305917" lon="18.077829">
        <ele>21</ele>
        <time>2020-01-24T06:31:39Z</time>
      </trkpt>
      <trkpt lat="59.305945" lon="18.077815">
        <ele>21</ele>
        <time>2020-01-24T06:31:41Z</time>
      </trkpt>
      <trkpt lat="59.305972" lon="18.077797">
        <ele>21</ele>
        <time>2020-01-24T06:31:41Z</time>
      </trkpt>
      <trkpt lat="59.305997" lon="18.07778">
        <ele>21</ele>
        <time>2020-01-24T06:31:42Z</time>
      </trkpt>
      <trkpt lat="59.306021" lon="18.077765">
        <ele>21</ele>
        <time>2020-01-24T06:31:44Z</time>
      </trkpt>
      <trkpt lat="59.306047" lon="18.077746">
        <ele>21</ele>
        <time>2020-01-24T06:31:44Z</time>
      </trkpt>
      <trkpt lat="59.306074" lon="18.07773">
        <ele>21</ele>
        <time>2020-01-24T06:31:45Z</time>
      </trkpt>
      <trkpt lat="59.306101" lon="18.077712">
        <ele>21</ele>
        <time>2020-01-24T06:31:47Z</time>
      </trkpt>
      <trkpt lat="59.306129" lon="18.077695">
        <ele>21</ele>
        <time>2020-01-24T06:31:47Z</time>
      </trkpt>
      <trkpt lat="59.306155" lon="18.077676">
        <ele>21</ele>
        <time>2020-01-24T06:31:48Z</time>
      </trkpt>
      <trkpt lat="59.30618" lon="18.077662">
        <ele>21</ele>
        <time>2020-01-24T06:31:50Z</time>
      </trkpt>
      <trkpt lat="59.306205" lon="18.077649">
        <ele>21</ele>
        <time>2020-01-24T06:31:50Z</time>
      </trkpt>
      <trkpt lat="59.306229" lon="18.077634">
        <ele>21</ele>
        <time>2020-01-24T06:31:51Z</time>
      </trkpt>
      <trkpt lat="59.306253" lon="18.077618">
        <ele>21</ele>
        <time>2020-01-24T06:31:52Z</time>
      </trkpt>
      <trkpt lat="59.306276" lon="18.077598">
        <ele>21</ele>
        <time>2020-01-24T06:31:53Z</time>
      </trkpt>
      <trkpt lat="59.3063" lon="18.077575">
        <ele>21</ele>
        <time>2020-01-24T06:31:54Z</time>
      </trkpt>
      <trkpt lat="59.306325" lon="18.077555">
        <ele>21</ele>
        <time>2020-01-24T06:31:55Z</time>
      </trkpt>
      <trkpt lat="59.30635" lon="18.077533">
        <ele>21</ele>
        <time>2020-01-24T06:31:56Z</time>
      </trkpt>
      <trkpt lat="59.306375" lon="18.077517">
        <ele>20</ele>
        <time>2020-01-24T06:31:58Z</time>
      </trkpt>
      <trkpt lat="59.306398" lon="18.077506">
        <ele>20</ele>
        <time>2020-01-24T06:31:58Z</time>
      </trkpt>
      <trkpt lat="59.306424" lon="18.077495">
        <ele>20</ele>
        <time>2020-01-24T06:32:00Z</time>
      </trkpt>
      <trkpt lat="59.30645" lon="18.07748">
        <ele>20</ele>
        <time>2020-01-24T06:32:00Z</time>
      </trkpt>
      <trkpt lat="59.306474" lon="18.077468">
        <ele>20</ele>
        <time>2020-01-24T06:32:02Z</time>
      </trkpt>
      <trkpt lat="59.306497" lon="18.077457">
        <ele>20</ele>
        <time>2020-01-24T06:32:02Z</time>
      </trkpt>
      <trkpt lat="59.306521" lon="18.07744">
        <ele>20</ele>
        <time>2020-01-24T06:32:03Z</time>
      </trkpt>
      <trkpt lat="59.306553" lon="18.077425">
        <ele>20</ele>
        <time>2020-01-24T06:32:05Z</time>
      </trkpt>
      <trkpt lat="59.306582" lon="18.077406">
        <ele>19</ele>
        <time>2020-01-24T06:32:05Z</time>
      </trkpt>
      <trkpt lat="59.306613" lon="18.077391">
        <ele>19</ele>
        <time>2020-01-24T06:32:06Z</time>
      </trkpt>
      <trkpt lat="59.306645" lon="18.077373">
        <ele>19</ele>
        <time>2020-01-24T06:32:08Z</time>
      </trkpt>
      <trkpt lat="59.306752" lon="18.07729">
        <ele>17</ele>
        <time>2020-01-24T06:32:11Z</time>
      </trkpt>
      <trkpt lat="59.306845" lon="18.077187">
        <ele>16</ele>
        <time>2020-01-24T06:32:16Z</time>
      </trkpt>
      <trkpt lat="59.306952" lon="18.077083">
        <ele>14</ele>
        <time>2020-01-24T06:32:19Z</time>
      </trkpt>
      <trkpt lat="59.307031" lon="18.076933">
        <ele>13</ele>
        <time>2020-01-24T06:32:23Z</time>
      </trkpt>
      <trkpt lat="59.307099" lon="18.076764">
        <ele>13</ele>
        <time>2020-01-24T06:32:28Z</time>
      </trkpt>
      <trkpt lat="59.307155" lon="18.076683">
        <ele>13</ele>
        <time>2020-01-24T06:32:29Z</time>
      </trkpt>
      <trkpt lat="59.307177" lon="18.076658">
        <ele>13</ele>
        <time>2020-01-24T06:32:31Z</time>
      </trkpt>
      <trkpt lat="59.307199" lon="18.076639">
        <ele>12</ele>
        <time>2020-01-24T06:32:31Z</time>
      </trkpt>
      <trkpt lat="59.30722" lon="18.076617">
        <ele>12</ele>
        <time>2020-01-24T06:32:32Z</time>
      </trkpt>
      <trkpt lat="59.307237" lon="18.076591">
        <ele>12</ele>
        <time>2020-01-24T06:32:33Z</time>
      </trkpt>
      <trkpt lat="59.307257" lon="18.076562">
        <ele>12</ele>
        <time>2020-01-24T06:32:34Z</time>
      </trkpt>
      <trkpt lat="59.307313" lon="18.076425">
        <ele>0</ele>
        <time>2020-01-24T06:32:37Z</time>
      </trkpt>
      <trkpt lat="59.30733" lon="18.076398">
        <ele>12</ele>
        <time>2020-01-24T06:32:38Z</time>
      </trkpt>
      <trkpt lat="59.307352" lon="18.076378">
        <ele>11</ele>
        <time>2020-01-24T06:32:39Z</time>
      </trkpt>
      <trkpt lat="59.30737" lon="18.07637">
        <ele>11</ele>
        <time>2020-01-24T06:32:40Z</time>
      </trkpt>
      <trkpt lat="59.307391" lon="18.076371">
        <ele>11</ele>
        <time>2020-01-24T06:32:41Z</time>
      </trkpt>
      <trkpt lat="59.307411" lon="18.076377">
        <ele>12</ele>
        <time>2020-01-24T06:32:43Z</time>
      </trkpt>
      <trkpt lat="59.307454" lon="18.076451">
        <ele>12</ele>
        <time>2020-01-24T06:32:43Z</time>
      </trkpt>
      <trkpt lat="59.30749" lon="18.076518">
        <ele>12</ele>
        <time>2020-01-24T06:32:44Z</time>
      </trkpt>
      <trkpt lat="59.307528" lon="18.076609">
        <ele>12</ele>
        <time>2020-01-24T06:32:45Z</time>
      </trkpt>
      <trkpt lat="59.307562" lon="18.076682">
        <ele>12</ele>
        <time>2020-01-24T06:32:46Z</time>
      </trkpt>
      <trkpt lat="59.307596" lon="18.076721">
        <ele>13</ele>
        <time>2020-01-24T06:32:47Z</time>
      </trkpt>
      <trkpt lat="59.307626" lon="18.076743">
        <ele>14</ele>
        <time>2020-01-24T06:32:48Z</time>
      </trkpt>
      <trkpt lat="59.307659" lon="18.076756">
        <ele>14</ele>
        <time>2020-01-24T06:32:49Z</time>
      </trkpt>
      <trkpt lat="59.307685" lon="18.076758">
        <ele>15</ele>
        <time>2020-01-24T06:32:50Z</time>
      </trkpt>
      <trkpt lat="59.307717" lon="18.07676">
        <ele>15</ele>
        <time>2020-01-24T06:32:52Z</time>
      </trkpt>
      <trkpt lat="59.307748" lon="18.076768">
        <ele>15</ele>
        <time>2020-01-24T06:32:52Z</time>
      </trkpt>
      <trkpt lat="59.307776" lon="18.07678">
        <ele>16</ele>
        <time>2020-01-24T06:32:53Z</time>
      </trkpt>
      <trkpt lat="59.307805" lon="18.07679">
        <ele>16</ele>
        <time>2020-01-24T06:32:54Z</time>
      </trkpt>
      <trkpt lat="59.307831" lon="18.076795">
        <ele>16</ele>
        <time>2020-01-24T06:32:55Z</time>
      </trkpt>
      <trkpt lat="59.307855" lon="18.076798">
        <ele>17</ele>
        <time>2020-01-24T06:32:57Z</time>
      </trkpt>
      <trkpt lat="59.307881" lon="18.076786">
        <ele>17</ele>
        <time>2020-01-24T06:32:58Z</time>
      </trkpt>
      <trkpt lat="59.307897" lon="18.076721">
        <ele>17</ele>
        <time>2020-01-24T06:33:00Z</time>
      </trkpt>
      <trkpt lat="59.307914" lon="18.076671">
        <ele>17</ele>
        <time>2020-01-24T06:33:01Z</time>
      </trkpt>
      <trkpt lat="59.307936" lon="18.076626">
        <ele>17</ele>
        <time>2020-01-24T06:33:02Z</time>
      </trkpt>
      <trkpt lat="59.307968" lon="18.0766">
        <ele>17</ele>
        <time>2020-01-24T06:33:03Z</time>
      </trkpt>
      <trkpt lat="59.308001" lon="18.076576">
        <ele>17</ele>
        <time>2020-01-24T06:33:05Z</time>
      </trkpt>
      <trkpt lat="59.308033" lon="18.076556">
        <ele>18</ele>
        <time>2020-01-24T06:33:05Z</time>
      </trkpt>
      <trkpt lat="59.308062" lon="18.076538">
        <ele>18</ele>
        <time>2020-01-24T06:33:06Z</time>
      </trkpt>
      <trkpt lat="59.308096" lon="18.076511">
        <ele>18</ele>
        <time>2020-01-24T06:33:07Z</time>
      </trkpt>
      <trkpt lat="59.308125" lon="18.076466">
        <ele>18</ele>
        <time>2020-01-24T06:33:08Z</time>
      </trkpt>
      <trkpt lat="59.30822" lon="18.076357">
        <ele>18</ele>
        <time>2020-01-24T06:33:11Z</time>
      </trkpt>
      <trkpt lat="59.308303" lon="18.076224">
        <ele>18</ele>
        <time>2020-01-24T06:33:14Z</time>
      </trkpt>
      <trkpt lat="59.308393" lon="18.076128">
        <ele>17</ele>
        <time>2020-01-24T06:33:17Z</time>
      </trkpt>
      <trkpt lat="59.308494" lon="18.076055">
        <ele>18</ele>
        <time>2020-01-24T06:33:20Z</time>
      </trkpt>
      <trkpt lat="59.308582" lon="18.0759">
        <ele>17</ele>
        <time>2020-01-24T06:33:24Z</time>
      </trkpt>
      <trkpt lat="59.308653" lon="18.075739">
        <ele>16</ele>
        <time>2020-01-24T06:33:27Z</time>
      </trkpt>
      <trkpt lat="59.30874" lon="18.07561">
        <ele>14</ele>
        <time>2020-01-24T06:33:30Z</time>
      </trkpt>
      <trkpt lat="59.308831" lon="18.075506">
        <ele>13</ele>
        <time>2020-01-24T06:33:33Z</time>
      </trkpt>
      <trkpt lat="59.308945" lon="18.075496">
        <ele>13</ele>
        <time>2020-01-24T06:33:37Z</time>
      </trkpt>
      <trkpt lat="59.309061" lon="18.075429">
        <ele>13</ele>
        <time>2020-01-24T06:33:41Z</time>
      </trkpt>
      <trkpt lat="59.309093" lon="18.075407">
        <ele>13</ele>
        <time>2020-01-24T06:33:42Z</time>
      </trkpt>
      <trkpt lat="59.309119" lon="18.075384">
        <ele>13</ele>
        <time>2020-01-24T06:33:43Z</time>
      </trkpt>
      <trkpt lat="59.309148" lon="18.075369">
        <ele>14</ele>
        <time>2020-01-24T06:33:44Z</time>
      </trkpt>
      <trkpt lat="59.309192" lon="18.075385">
        <ele>14</ele>
        <time>2020-01-24T06:33:45Z</time>
      </trkpt>
      <trkpt lat="59.309231" lon="18.075417">
        <ele>14</ele>
        <time>2020-01-24T06:33:46Z</time>
      </trkpt>
      <trkpt lat="59.309331" lon="18.075509">
        <ele>15</ele>
        <time>2020-01-24T06:33:49Z</time>
      </trkpt>
      <trkpt lat="59.309444" lon="18.0754">
        <ele>14</ele>
        <time>2020-01-24T06:33:52Z</time>
      </trkpt>
      <trkpt lat="59.309535" lon="18.075276">
        <ele>13</ele>
        <time>2020-01-24T06:33:55Z</time>
      </trkpt>
      <trkpt lat="59.309626" lon="18.075228">
        <ele>12</ele>
        <time>2020-01-24T06:33:58Z</time>
      </trkpt>
      <trkpt lat="59.309657" lon="18.07521">
        <ele>12</ele>
        <time>2020-01-24T06:34:00Z</time>
      </trkpt>
      <trkpt lat="59.309698" lon="18.075181">
        <ele>12</ele>
        <time>2020-01-24T06:34:00Z</time>
      </trkpt>
      <trkpt lat="59.309735" lon="18.075153">
        <ele>12</ele>
        <time>2020-01-24T06:34:01Z</time>
      </trkpt>
      <trkpt lat="59.309761" lon="18.07514">
        <ele>12</ele>
        <time>2020-01-24T06:34:02Z</time>
      </trkpt>
      <trkpt lat="59.30979" lon="18.075115">
        <ele>12</ele>
        <time>2020-01-24T06:34:03Z</time>
      </trkpt>
      <trkpt lat="59.309822" lon="18.075101">
        <ele>12</ele>
        <time>2020-01-24T06:34:04Z</time>
      </trkpt>
      <trkpt lat="59.309861" lon="18.075098">
        <ele>12</ele>
        <time>2020-01-24T06:34:06Z</time>
      </trkpt>
      <trkpt lat="59.309892" lon="18.075086">
        <ele>11</ele>
        <time>2020-01-24T06:34:06Z</time>
      </trkpt>
      <trkpt lat="59.309928" lon="18.075076">
        <ele>11</ele>
        <time>2020-01-24T06:34:08Z</time>
      </trkpt>
      <trkpt lat="59.309962" lon="18.075059">
        <ele>10</ele>
        <time>2020-01-24T06:34:08Z</time>
      </trkpt>
      <trkpt lat="59.309996" lon="18.075039">
        <ele>9</ele>
        <time>2020-01-24T06:34:09Z</time>
      </trkpt>
      <trkpt lat="59.310029" lon="18.075016">
        <ele>9</ele>
        <time>2020-01-24T06:34:10Z</time>
      </trkpt>
      <trkpt lat="59.310061" lon="18.074995">
        <ele>9</ele>
        <time>2020-01-24T06:34:11Z</time>
      </trkpt>
      <trkpt lat="59.310095" lon="18.074972">
        <ele>8</ele>
        <time>2020-01-24T06:34:13Z</time>
      </trkpt>
      <trkpt lat="59.310124" lon="18.074946">
        <ele>8</ele>
        <time>2020-01-24T06:34:13Z</time>
      </trkpt>
      <trkpt lat="59.310159" lon="18.074918">
        <ele>7</ele>
        <time>2020-01-24T06:34:14Z</time>
      </trkpt>
      <trkpt lat="59.310196" lon="18.074881">
        <ele>6</ele>
        <time>2020-01-24T06:34:15Z</time>
      </trkpt>
      <trkpt lat="59.310234" lon="18.074862">
        <ele>6</ele>
        <time>2020-01-24T06:34:16Z</time>
      </trkpt>
      <trkpt lat="59.310272" lon="18.074866">
        <ele>6</ele>
        <time>2020-01-24T06:34:18Z</time>
      </trkpt>
      <trkpt lat="59.310312" lon="18.074907">
        <ele>6</ele>
        <time>2020-01-24T06:34:18Z</time>
      </trkpt>
      <trkpt lat="59.310347" lon="18.07493">
        <ele>6</ele>
        <time>2020-01-24T06:34:19Z</time>
      </trkpt>
      <trkpt lat="59.310381" lon="18.074915">
        <ele>5</ele>
        <time>2020-01-24T06:34:21Z</time>
      </trkpt>
      <trkpt lat="59.310408" lon="18.074899">
        <ele>5</ele>
        <time>2020-01-24T06:34:21Z</time>
      </trkpt>
      <trkpt lat="59.310435" lon="18.074884">
        <ele>5</ele>
        <time>2020-01-24T06:34:22Z</time>
      </trkpt>
      <trkpt lat="59.310466" lon="18.074867">
        <ele>4</ele>
        <time>2020-01-24T06:34:24Z</time>
      </trkpt>
      <trkpt lat="59.310495" lon="18.074842">
        <ele>4</ele>
        <time>2020-01-24T06:34:24Z</time>
      </trkpt>
      <trkpt lat="59.31052" lon="18.074822">
        <ele>4</ele>
        <time>2020-01-24T06:34:25Z</time>
      </trkpt>
      <trkpt lat="59.310549" lon="18.07481">
        <ele>3</ele>
        <time>2020-01-24T06:34:27Z</time>
      </trkpt>
      <trkpt lat="59.310579" lon="18.074792">
        <ele>3</ele>
        <time>2020-01-24T06:34:27Z</time>
      </trkpt>
      <trkpt lat="59.310613" lon="18.074767">
        <ele>3</ele>
        <time>2020-01-24T06:34:28Z</time>
      </trkpt>
      <trkpt lat="59.310648" lon="18.074754">
        <ele>2</ele>
        <time>2020-01-24T06:34:29Z</time>
      </trkpt>
      <trkpt lat="59.310684" lon="18.074736">
        <ele>2</ele>
        <time>2020-01-24T06:34:30Z</time>
      </trkpt>
      <trkpt lat="59.31072" lon="18.074715">
        <ele>1</ele>
        <time>2020-01-24T06:34:32Z</time>
      </trkpt>
      <trkpt lat="59.310756" lon="18.074695">
        <ele>1</ele>
        <time>2020-01-24T06:34:32Z</time>
      </trkpt>
      <trkpt lat="59.310793" lon="18.07468">
        <ele>1</ele>
        <time>2020-01-24T06:34:33Z</time>
      </trkpt>
      <trkpt lat="59.310829" lon="18.074666">
        <ele>0</ele>
        <time>2020-01-24T06:34:34Z</time>
      </trkpt>
      <trkpt lat="59.310859" lon="18.074647">
        <ele>0</ele>
        <time>2020-01-24T06:34:36Z</time>
      </trkpt>
      <trkpt lat="59.310889" lon="18.074636">
        <ele>0</ele>
        <time>2020-01-24T06:34:36Z</time>
      </trkpt>
      <trkpt lat="59.31092" lon="18.074627">
        <ele>0</ele>
        <time>2020-01-24T06:34:37Z</time>
      </trkpt>
      <trkpt lat="59.310955" lon="18.074617">
        <ele>0</ele>
        <time>2020-01-24T06:34:38Z</time>
      </trkpt>
      <trkpt lat="59.31099" lon="18.0746">
        <ele>0</ele>
        <time>2020-01-24T06:34:39Z</time>
      </trkpt>
      <trkpt lat="59.311021" lon="18.074585">
        <ele>0</ele>
        <time>2020-01-24T06:34:40Z</time>
      </trkpt>
      <trkpt lat="59.311059" lon="18.07457">
        <ele>0</ele>
        <time>2020-01-24T06:34:41Z</time>
      </trkpt>
      <trkpt lat="59.311095" lon="18.074559">
        <ele>0</ele>
        <time>2020-01-24T06:34:42Z</time>
      </trkpt>
      <trkpt lat="59.311126" lon="18.074544">
        <ele>0</ele>
        <time>2020-01-24T06:34:44Z</time>
      </trkpt>
      <trkpt lat="59.31116" lon="18.074525">
        <ele>0</ele>
        <time>2020-01-24T06:34:44Z</time>
      </trkpt>
      <trkpt lat="59.311188" lon="18.074507">
        <ele>0</ele>
        <time>2020-01-24T06:34:45Z</time>
      </trkpt>
      <trkpt lat="59.311211" lon="18.074492">
        <ele>0</ele>
        <time>2020-01-24T06:34:47Z</time>
      </trkpt>
      <trkpt lat="59.311239" lon="18.074474">
        <ele>0</ele>
        <time>2020-01-24T06:34:47Z</time>
      </trkpt>
      <trkpt lat="59.311267" lon="18.074457">
        <ele>0</ele>
        <time>2020-01-24T06:34:48Z</time>
      </trkpt>
      <trkpt lat="59.311301" lon="18.074444">
        <ele>0</ele>
        <time>2020-01-24T06:34:49Z</time>
      </trkpt>
      <trkpt lat="59.311334" lon="18.07443">
        <ele>0</ele>
        <time>2020-01-24T06:34:50Z</time>
      </trkpt>
      <trkpt lat="59.311371" lon="18.074458">
        <ele>0</ele>
        <time>2020-01-24T06:34:51Z</time>
      </trkpt>
      <trkpt lat="59.311405" lon="18.074468">
        <ele>0</ele>
        <time>2020-01-24T06:34:53Z</time>
      </trkpt>
      <trkpt lat="59.311434" lon="18.074478">
        <ele>0</ele>
        <time>2020-01-24T06:34:53Z</time>
      </trkpt>
      <trkpt lat="59.31147" lon="18.074498">
        <ele>0</ele>
        <time>2020-01-24T06:34:54Z</time>
      </trkpt>
      <trkpt lat="59.311499" lon="18.074462">
        <ele>0</ele>
        <time>2020-01-24T06:34:55Z</time>
      </trkpt>
      <trkpt lat="59.311528" lon="18.074449">
        <ele>0</ele>
        <time>2020-01-24T06:34:56Z</time>
      </trkpt>
      <trkpt lat="59.311558" lon="18.074432">
        <ele>0</ele>
        <time>2020-01-24T06:34:57Z</time>
      </trkpt>
      <trkpt lat="59.31159" lon="18.074404">
        <ele>0</ele>
        <time>2020-01-24T06:34:58Z</time>
      </trkpt>
      <trkpt lat="59.311618" lon="18.0744">
        <ele>0</ele>
        <time>2020-01-24T06:34:59Z</time>
      </trkpt>
      <trkpt lat="59.311648" lon="18.074386">
        <ele>1</ele>
        <time>2020-01-24T06:35:00Z</time>
      </trkpt>
      <trkpt lat="59.311683" lon="18.074364">
        <ele>1</ele>
        <time>2020-01-24T06:35:01Z</time>
      </trkpt>
      <trkpt lat="59.311706" lon="18.074333">
        <ele>1</ele>
        <time>2020-01-24T06:35:02Z</time>
      </trkpt>
      <trkpt lat="59.311729" lon="18.074314">
        <ele>2</ele>
        <time>2020-01-24T06:35:04Z</time>
      </trkpt>
      <trkpt lat="59.311752" lon="18.074298">
        <ele>2</ele>
        <time>2020-01-24T06:35:04Z</time>
      </trkpt>
      <trkpt lat="59.311772" lon="18.074282">
        <ele>0</ele>
        <time>2020-01-24T06:35:05Z</time>
      </trkpt>
      <trkpt lat="59.311788" lon="18.074262">
        <ele>3</ele>
        <time>2020-01-24T06:35:06Z</time>
      </trkpt>
      <trkpt lat="59.311826" lon="18.074232">
        <ele>4</ele>
        <time>2020-01-24T06:35:09Z</time>
      </trkpt>
      <trkpt lat="59.311846" lon="18.074224">
        <ele>4</ele>
        <time>2020-01-24T06:35:10Z</time>
      </trkpt>
      <trkpt lat="59.311872" lon="18.074219">
        <ele>5</ele>
        <time>2020-01-24T06:35:11Z</time>
      </trkpt>
      <trkpt lat="59.311895" lon="18.0742">
        <ele>6</ele>
        <time>2020-01-24T06:35:11Z</time>
      </trkpt>
      <trkpt lat="59.311913" lon="18.07417">
        <ele>6</ele>
        <time>2020-01-24T06:35:12Z</time>
      </trkpt>
      <trkpt lat="59.311941" lon="18.07417">
        <ele>6</ele>
        <time>2020-01-24T06:35:13Z</time>
      </trkpt>
      <trkpt lat="59.311965" lon="18.074163">
        <ele>7</ele>
        <time>2020-01-24T06:35:14Z</time>
      </trkpt>
      <trkpt lat="59.311989" lon="18.074152">
        <ele>7</ele>
        <time>2020-01-24T06:35:15Z</time>
      </trkpt>
      <trkpt lat="59.312017" lon="18.074153">
        <ele>8</ele>
        <time>2020-01-24T06:35:16Z</time>
      </trkpt>
      <trkpt lat="59.312046" lon="18.074176">
        <ele>9</ele>
        <time>2020-01-24T06:35:18Z</time>
      </trkpt>
      <trkpt lat="59.312072" lon="18.074184">
        <ele>10</ele>
        <time>2020-01-24T06:35:18Z</time>
      </trkpt>
      <trkpt lat="59.312099" lon="18.074191">
        <ele>11</ele>
        <time>2020-01-24T06:35:19Z</time>
      </trkpt>
      <trkpt lat="59.312121" lon="18.074194">
        <ele>11</ele>
        <time>2020-01-24T06:35:20Z</time>
      </trkpt>
      <trkpt lat="59.312142" lon="18.074186">
        <ele>12</ele>
        <time>2020-01-24T06:35:21Z</time>
      </trkpt>
      <trkpt lat="59.312166" lon="18.074148">
        <ele>12</ele>
        <time>2020-01-24T06:35:23Z</time>
      </trkpt>
      <trkpt lat="59.312182" lon="18.074132">
        <ele>12</ele>
        <time>2020-01-24T06:35:24Z</time>
      </trkpt>
      <trkpt lat="59.312203" lon="18.07412">
        <ele>12</ele>
        <time>2020-01-24T06:35:25Z</time>
      </trkpt>
      <trkpt lat="59.312222" lon="18.074106">
        <ele>12</ele>
        <time>2020-01-24T06:35:26Z</time>
      </trkpt>
      <trkpt lat="59.312278" lon="18.073934">
        <ele>12</ele>
        <time>2020-01-24T06:35:30Z</time>
      </trkpt>
      <trkpt lat="59.312346" lon="18.07379">
        <ele>10</ele>
        <time>2020-01-24T06:35:33Z</time>
      </trkpt>
      <trkpt lat="59.31242" lon="18.073733">
        <ele>9</ele>
        <time>2020-01-24T06:35:39Z</time>
      </trkpt>
      <trkpt lat="59.312437" lon="18.073707">
        <ele>9</ele>
        <time>2020-01-24T06:35:40Z</time>
      </trkpt>
      <trkpt lat="59.312452" lon="18.073682">
        <ele>9</ele>
        <time>2020-01-24T06:35:41Z</time>
      </trkpt>
      <trkpt lat="59.312469" lon="18.073662">
        <ele>9</ele>
        <time>2020-01-24T06:35:43Z</time>
      </trkpt>
      <trkpt lat="59.312634" lon="18.073788">
        <ele>8</ele>
        <time>2020-01-24T06:35:45Z</time>
      </trkpt>
      <trkpt lat="59.312733" lon="18.073904">
        <ele>11</ele>
        <time>2020-01-24T06:35:49Z</time>
      </trkpt>
      <trkpt lat="59.312796" lon="18.073949">
        <ele>14</ele>
        <time>2020-01-24T06:35:51Z</time>
      </trkpt>
      <trkpt lat="59.312842" lon="18.073952">
        <ele>15</ele>
        <time>2020-01-24T06:35:53Z</time>
      </trkpt>
      <trkpt lat="59.312866" lon="18.07393">
        <ele>15</ele>
        <time>2020-01-24T06:35:54Z</time>
      </trkpt>
      <trkpt lat="59.312892" lon="18.073918">
        <ele>16</ele>
        <time>2020-01-24T06:35:55Z</time>
      </trkpt>
      <trkpt lat="59.312914" lon="18.0739">
        <ele>16</ele>
        <time>2020-01-24T06:35:57Z</time>
      </trkpt>
      <trkpt lat="59.312941" lon="18.073882">
        <ele>16</ele>
        <time>2020-01-24T06:35:57Z</time>
      </trkpt>
      <trkpt lat="59.312966" lon="18.073854">
        <ele>17</ele>
        <time>2020-01-24T06:35:58Z</time>
      </trkpt>
      <trkpt lat="59.312995" lon="18.073839">
        <ele>17</ele>
        <time>2020-01-24T06:35:59Z</time>
      </trkpt>
      <trkpt lat="59.313017" lon="18.073808">
        <ele>17</ele>
        <time>2020-01-24T06:36:00Z</time>
      </trkpt>
      <trkpt lat="59.313045" lon="18.07378">
        <ele>17</ele>
        <time>2020-01-24T06:36:01Z</time>
      </trkpt>
      <trkpt lat="59.313065" lon="18.073763">
        <ele>17</ele>
        <time>2020-01-24T06:36:02Z</time>
      </trkpt>
      <trkpt lat="59.313088" lon="18.073746">
        <ele>17</ele>
        <time>2020-01-24T06:36:03Z</time>
      </trkpt>
      <trkpt lat="59.313107" lon="18.073728">
        <ele>17</ele>
        <time>2020-01-24T06:36:04Z</time>
      </trkpt>
      <trkpt lat="59.313126" lon="18.073713">
        <ele>17</ele>
        <time>2020-01-24T06:36:05Z</time>
      </trkpt>
      <trkpt lat="59.313143" lon="18.073696">
        <ele>17</ele>
        <time>2020-01-24T06:36:07Z</time>
      </trkpt>
      <trkpt lat="59.31316" lon="18.073684">
        <ele>17</ele>
        <time>2020-01-24T06:36:08Z</time>
      </trkpt>
      <trkpt lat="59.313178" lon="18.073671">
        <ele>17</ele>
        <time>2020-01-24T06:36:08Z</time>
      </trkpt>
      <trkpt lat="59.313203" lon="18.073655">
        <ele>17</ele>
        <time>2020-01-24T06:36:09Z</time>
      </trkpt>
      <trkpt lat="59.313227" lon="18.073647">
        <ele>17</ele>
        <time>2020-01-24T06:36:10Z</time>
      </trkpt>
      <trkpt lat="59.313251" lon="18.073649">
        <ele>17</ele>
        <time>2020-01-24T06:36:11Z</time>
      </trkpt>
      <trkpt lat="59.313292" lon="18.073665">
        <ele>17</ele>
        <time>2020-01-24T06:36:13Z</time>
      </trkpt>
      <trkpt lat="59.313315" lon="18.073665">
        <ele>18</ele>
        <time>2020-01-24T06:36:14Z</time>
      </trkpt>
      <trkpt lat="59.313341" lon="18.073663">
        <ele>18</ele>
        <time>2020-01-24T06:36:16Z</time>
      </trkpt>
      <trkpt lat="59.313365" lon="18.073648">
        <ele>18</ele>
        <time>2020-01-24T06:36:16Z</time>
      </trkpt>
      <trkpt lat="59.31339" lon="18.073636">
        <ele>17</ele>
        <time>2020-01-24T06:36:17Z</time>
      </trkpt>
      <trkpt lat="59.31341" lon="18.073621">
        <ele>17</ele>
        <time>2020-01-24T06:36:18Z</time>
      </trkpt>
      <trkpt lat="59.313435" lon="18.073599">
        <ele>17</ele>
        <time>2020-01-24T06:36:19Z</time>
      </trkpt>
      <trkpt lat="59.31346" lon="18.073586">
        <ele>16</ele>
        <time>2020-01-24T06:36:20Z</time>
      </trkpt>
      <trkpt lat="59.313483" lon="18.073568">
        <ele>16</ele>
        <time>2020-01-24T06:36:21Z</time>
      </trkpt>
      <trkpt lat="59.313506" lon="18.073544">
        <ele>15</ele>
        <time>2020-01-24T06:36:22Z</time>
      </trkpt>
      <trkpt lat="59.313534" lon="18.073518">
        <ele>14</ele>
        <time>2020-01-24T06:36:23Z</time>
      </trkpt>
      <trkpt lat="59.313568" lon="18.07349">
        <ele>13</ele>
        <time>2020-01-24T06:36:24Z</time>
      </trkpt>
      <trkpt lat="59.313597" lon="18.07346">
        <ele>13</ele>
        <time>2020-01-24T06:36:26Z</time>
      </trkpt>
      <trkpt lat="59.313622" lon="18.07344">
        <ele>12</ele>
        <time>2020-01-24T06:36:27Z</time>
      </trkpt>
      <trkpt lat="59.313645" lon="18.07341">
        <ele>12</ele>
        <time>2020-01-24T06:36:27Z</time>
      </trkpt>
      <trkpt lat="59.313663" lon="18.073377">
        <ele>11</ele>
        <time>2020-01-24T06:36:28Z</time>
      </trkpt>
      <trkpt lat="59.313684" lon="18.073354">
        <ele>11</ele>
        <time>2020-01-24T06:36:29Z</time>
      </trkpt>
      <trkpt lat="59.313707" lon="18.073336">
        <ele>10</ele>
        <time>2020-01-24T06:36:30Z</time>
      </trkpt>
      <trkpt lat="59.313733" lon="18.073309">
        <ele>9</ele>
        <time>2020-01-24T06:36:32Z</time>
      </trkpt>
      <trkpt lat="59.313758" lon="18.073292">
        <ele>9</ele>
        <time>2020-01-24T06:36:32Z</time>
      </trkpt>
      <trkpt lat="59.313786" lon="18.073269">
        <ele>9</ele>
        <time>2020-01-24T06:36:33Z</time>
      </trkpt>
      <trkpt lat="59.313808" lon="18.073246">
        <ele>8</ele>
        <time>2020-01-24T06:36:35Z</time>
      </trkpt>
      <trkpt lat="59.31383" lon="18.073228">
        <ele>8</ele>
        <time>2020-01-24T06:36:35Z</time>
      </trkpt>
      <trkpt lat="59.313854" lon="18.073208">
        <ele>7</ele>
        <time>2020-01-24T06:36:36Z</time>
      </trkpt>
      <trkpt lat="59.313874" lon="18.073183">
        <ele>7</ele>
        <time>2020-01-24T06:36:37Z</time>
      </trkpt>
      <trkpt lat="59.313892" lon="18.073159">
        <ele>7</ele>
        <time>2020-01-24T06:36:38Z</time>
      </trkpt>
      <trkpt lat="59.313911" lon="18.073154">
        <ele>6</ele>
        <time>2020-01-24T06:36:39Z</time>
      </trkpt>
      <trkpt lat="59.313933" lon="18.073174">
        <ele>6</ele>
        <time>2020-01-24T06:36:40Z</time>
      </trkpt>
      <trkpt lat="59.314009" lon="18.073289">
        <ele>7</ele>
        <time>2020-01-24T06:36:43Z</time>
      </trkpt>
      <trkpt lat="59.314084" lon="18.073398">
        <ele>8</ele>
        <time>2020-01-24T06:36:44Z</time>
      </trkpt>
      <trkpt lat="59.31417" lon="18.073391">
        <ele>10</ele>
        <time>2020-01-24T06:36:47Z</time>
      </trkpt>
      <trkpt lat="59.314196" lon="18.073373">
        <ele>10</ele>
        <time>2020-01-24T06:36:48Z</time>
      </trkpt>
      <trkpt lat="59.314217" lon="18.073356">
        <ele>11</ele>
        <time>2020-01-24T06:36:49Z</time>
      </trkpt>
      <trkpt lat="59.314242" lon="18.073351">
        <ele>11</ele>
        <time>2020-01-24T06:36:50Z</time>
      </trkpt>
      <trkpt lat="59.314262" lon="18.073331">
        <ele>11</ele>
        <time>2020-01-24T06:36:51Z</time>
      </trkpt>
      <trkpt lat="59.314282" lon="18.073318">
        <ele>11</ele>
        <time>2020-01-24T06:36:52Z</time>
      </trkpt>
      <trkpt lat="59.314303" lon="18.073293">
        <ele>11</ele>
        <time>2020-01-24T06:36:53Z</time>
      </trkpt>
      <trkpt lat="59.314328" lon="18.073262">
        <ele>11</ele>
        <time>2020-01-24T06:36:54Z</time>
      </trkpt>
      <trkpt lat="59.314346" lon="18.073234">
        <ele>11</ele>
        <time>2020-01-24T06:36:56Z</time>
      </trkpt>
      <trkpt lat="59.314361" lon="18.07321">
        <ele>11</ele>
        <time>2020-01-24T06:36:56Z</time>
      </trkpt>
      <trkpt lat="59.314375" lon="18.073187">
        <ele>11</ele>
        <time>2020-01-24T06:36:57Z</time>
      </trkpt>
      <trkpt lat="59.314388" lon="18.07316">
        <ele>12</ele>
        <time>2020-01-24T06:36:58Z</time>
      </trkpt>
      <trkpt lat="59.314411" lon="18.073108">
        <ele>12</ele>
        <time>2020-01-24T06:37:00Z</time>
      </trkpt>
      <trkpt lat="59.314427" lon="18.073075">
        <ele>12</ele>
        <time>2020-01-24T06:37:01Z</time>
      </trkpt>
      <trkpt lat="59.314441" lon="18.073052">
        <ele>12</ele>
        <time>2020-01-24T06:37:02Z</time>
      </trkpt>
      <trkpt lat="59.314459" lon="18.073032">
        <ele>12</ele>
        <time>2020-01-24T06:37:04Z</time>
      </trkpt>
      <trkpt lat="59.314477" lon="18.073016">
        <ele>12</ele>
        <time>2020-01-24T06:37:05Z</time>
      </trkpt>
      <trkpt lat="59.314501" lon="18.073006">
        <ele>12</ele>
        <time>2020-01-24T06:37:05Z</time>
      </trkpt>
      <trkpt lat="59.314538" lon="18.073028">
        <ele>12</ele>
        <time>2020-01-24T06:37:07Z</time>
      </trkpt>
      <trkpt lat="59.314567" lon="18.073032">
        <ele>12</ele>
        <time>2020-01-24T06:37:07Z</time>
      </trkpt>
      <trkpt lat="59.314589" lon="18.073028">
        <ele>12</ele>
        <time>2020-01-24T06:37:08Z</time>
      </trkpt>
      <trkpt lat="59.31461" lon="18.07302">
        <ele>11</ele>
        <time>2020-01-24T06:37:09Z</time>
      </trkpt>
      <trkpt lat="59.314633" lon="18.073008">
        <ele>12</ele>
        <time>2020-01-24T06:37:10Z</time>
      </trkpt>
      <trkpt lat="59.314663" lon="18.073004">
        <ele>13</ele>
        <time>2020-01-24T06:37:11Z</time>
      </trkpt>
      <trkpt lat="59.314697" lon="18.073009">
        <ele>13</ele>
        <time>2020-01-24T06:37:12Z</time>
      </trkpt>
      <trkpt lat="59.314737" lon="18.073016">
        <ele>13</ele>
        <time>2020-01-24T06:37:13Z</time>
      </trkpt>
      <trkpt lat="59.314782" lon="18.073016">
        <ele>14</ele>
        <time>2020-01-24T06:37:15Z</time>
      </trkpt>
      <trkpt lat="59.314825" lon="18.07302">
        <ele>14</ele>
        <time>2020-01-24T06:37:15Z</time>
      </trkpt>
      <trkpt lat="59.314864" lon="18.073028">
        <ele>14</ele>
        <time>2020-01-24T06:37:16Z</time>
      </trkpt>
      <trkpt lat="59.314895" lon="18.073033">
        <ele>14</ele>
        <time>2020-01-24T06:37:18Z</time>
      </trkpt>
      <trkpt lat="59.314928" lon="18.073036">
        <ele>14</ele>
        <time>2020-01-24T06:37:18Z</time>
      </trkpt>
      <trkpt lat="59.314958" lon="18.073036">
        <ele>15</ele>
        <time>2020-01-24T06:37:20Z</time>
      </trkpt>
      <trkpt lat="59.314988" lon="18.073035">
        <ele>15</ele>
        <time>2020-01-24T06:37:20Z</time>
      </trkpt>
      <trkpt lat="59.315025" lon="18.073044">
        <ele>15</ele>
        <time>2020-01-24T06:37:21Z</time>
      </trkpt>
      <trkpt lat="59.315056" lon="18.073044">
        <ele>15</ele>
        <time>2020-01-24T06:37:22Z</time>
      </trkpt>
      <trkpt lat="59.315095" lon="18.073046">
        <ele>15</ele>
        <time>2020-01-24T06:37:24Z</time>
      </trkpt>
      <trkpt lat="59.315132" lon="18.073046">
        <ele>15</ele>
        <time>2020-01-24T06:37:24Z</time>
      </trkpt>
      <trkpt lat="59.315163" lon="18.073036">
        <ele>16</ele>
        <time>2020-01-24T06:37:25Z</time>
      </trkpt>
      <trkpt lat="59.315201" lon="18.073022">
        <ele>16</ele>
        <time>2020-01-24T06:37:26Z</time>
      </trkpt>
      <trkpt lat="59.315238" lon="18.07301">
        <ele>16</ele>
        <time>2020-01-24T06:37:27Z</time>
      </trkpt>
      <trkpt lat="59.315275" lon="18.07299">
        <ele>17</ele>
        <time>2020-01-24T06:37:29Z</time>
      </trkpt>
      <trkpt lat="59.315309" lon="18.07296">
        <ele>17</ele>
        <time>2020-01-24T06:37:29Z</time>
      </trkpt>
      <trkpt lat="59.315345" lon="18.072938">
        <ele>17</ele>
        <time>2020-01-24T06:37:30Z</time>
      </trkpt>
      <trkpt lat="59.315384" lon="18.072928">
        <ele>18</ele>
        <time>2020-01-24T06:37:32Z</time>
      </trkpt>
      <trkpt lat="59.315421" lon="18.072906">
        <ele>18</ele>
        <time>2020-01-24T06:37:32Z</time>
      </trkpt>
      <trkpt lat="59.315458" lon="18.07289">
        <ele>19</ele>
        <time>2020-01-24T06:37:34Z</time>
      </trkpt>
      <trkpt lat="59.315492" lon="18.072866">
        <ele>19</ele>
        <time>2020-01-24T06:37:34Z</time>
      </trkpt>
      <trkpt lat="59.315521" lon="18.072834">
        <ele>19</ele>
        <time>2020-01-24T06:37:35Z</time>
      </trkpt>
      <trkpt lat="59.315549" lon="18.072808">
        <ele>19</ele>
        <time>2020-01-24T06:37:36Z</time>
      </trkpt>
      <trkpt lat="59.315577" lon="18.072777">
        <ele>19</ele>
        <time>2020-01-24T06:37:37Z</time>
      </trkpt>
      <trkpt lat="59.31561" lon="18.072752">
        <ele>19</ele>
        <time>2020-01-24T06:37:39Z</time>
      </trkpt>
      <trkpt lat="59.315646" lon="18.07273">
        <ele>19</ele>
        <time>2020-01-24T06:37:39Z</time>
      </trkpt>
      <trkpt lat="59.315684" lon="18.072711">
        <ele>19</ele>
        <time>2020-01-24T06:37:40Z</time>
      </trkpt>
      <trkpt lat="59.315779" lon="18.072598">
        <ele>18</ele>
        <time>2020-01-24T06:37:44Z</time>
      </trkpt>
      <trkpt lat="59.315879" lon="18.072538">
        <ele>17</ele>
        <time>2020-01-24T06:37:49Z</time>
      </trkpt>
      <trkpt lat="59.315984" lon="18.072516">
        <ele>16</ele>
        <time>2020-01-24T06:37:54Z</time>
      </trkpt>
      <trkpt lat="59.316098" lon="18.072416">
        <ele>15</ele>
        <time>2020-01-24T06:37:59Z</time>
      </trkpt>
      <trkpt lat="59.316202" lon="18.072339">
        <ele>14</ele>
        <time>2020-01-24T06:38:02Z</time>
      </trkpt>
      <trkpt lat="59.316309" lon="18.072309">
        <ele>14</ele>
        <time>2020-01-24T06:38:05Z</time>
      </trkpt>
      <trkpt lat="59.316402" lon="18.072224">
        <ele>14</ele>
        <time>2020-01-24T06:38:09Z</time>
      </trkpt>
      <trkpt lat="59.316498" lon="18.072161">
        <ele>15</ele>
        <time>2020-01-24T06:38:12Z</time>
      </trkpt>
      <trkpt lat="59.316577" lon="18.072071">
        <ele>14</ele>
        <time>2020-01-24T06:38:14Z</time>
      </trkpt>
      <trkpt lat="59.316661" lon="18.071975">
        <ele>15</ele>
        <time>2020-01-24T06:38:17Z</time>
      </trkpt>
      <trkpt lat="59.316768" lon="18.071842">
        <ele>14</ele>
        <time>2020-01-24T06:38:19Z</time>
      </trkpt>
      <trkpt lat="59.316856" lon="18.071746">
        <ele>14</ele>
        <time>2020-01-24T06:38:22Z</time>
      </trkpt>
      <trkpt lat="59.316975" lon="18.071749">
        <ele>12</ele>
        <time>2020-01-24T06:38:26Z</time>
      </trkpt>
      <trkpt lat="59.31707" lon="18.071715">
        <ele>11</ele>
        <time>2020-01-24T06:38:30Z</time>
      </trkpt>
      <trkpt lat="59.317163" lon="18.071675">
        <ele>11</ele>
        <time>2020-01-24T06:38:34Z</time>
      </trkpt>
      <trkpt lat="59.317257" lon="18.071608">
        <ele>11</ele>
        <time>2020-01-24T06:38:37Z</time>
      </trkpt>
      <trkpt lat="59.317324" lon="18.071563">
        <ele>10</ele>
        <time>2020-01-24T06:38:40Z</time>
      </trkpt>
      <trkpt lat="59.317355" lon="18.071534">
        <ele>10</ele>
        <time>2020-01-24T06:38:40Z</time>
      </trkpt>
      <trkpt lat="59.317389" lon="18.071504">
        <ele>10</ele>
        <time>2020-01-24T06:38:41Z</time>
      </trkpt>
      <trkpt lat="59.317484" lon="18.071412">
        <ele>10</ele>
        <time>2020-01-24T06:38:44Z</time>
      </trkpt>
      <trkpt lat="59.317588" lon="18.07138">
        <ele>8</ele>
        <time>2020-01-24T06:38:47Z</time>
      </trkpt>
      <trkpt lat="59.317676" lon="18.071319">
        <ele>8</ele>
        <time>2020-01-24T06:38:50Z</time>
      </trkpt>
      <trkpt lat="59.317777" lon="18.071236">
        <ele>6</ele>
        <time>2020-01-24T06:38:53Z</time>
      </trkpt>
      <trkpt lat="59.317886" lon="18.071184">
        <ele>5</ele>
        <time>2020-01-24T06:38:56Z</time>
      </trkpt>
      <trkpt lat="59.317981" lon="18.071129">
        <ele>5</ele>
        <time>2020-01-24T06:38:59Z</time>
      </trkpt>
      <trkpt lat="59.31807" lon="18.07105">
        <ele>4</ele>
        <time>2020-01-24T06:39:02Z</time>
      </trkpt>
      <trkpt lat="59.318159" lon="18.071004">
        <ele>3</ele>
        <time>2020-01-24T06:39:05Z</time>
      </trkpt>
      <trkpt lat="59.318265" lon="18.070999">
        <ele>3</ele>
        <time>2020-01-24T06:39:08Z</time>
      </trkpt>
      <trkpt lat="59.318374" lon="18.070966">
        <ele>3</ele>
        <time>2020-01-24T06:39:12Z</time>
      </trkpt>
      <trkpt lat="59.318479" lon="18.070969">
        <ele>2</ele>
        <time>2020-01-24T06:39:16Z</time>
      </trkpt>
      <trkpt lat="59.318598" lon="18.070968">
        <ele>1</ele>
        <time>2020-01-24T06:39:18Z</time>
      </trkpt>
      <trkpt lat="59.318724" lon="18.070962">
        <ele>1</ele>
        <time>2020-01-24T06:39:21Z</time>
      </trkpt>
      <trkpt lat="59.318823" lon="18.070958">
        <ele>0</ele>
        <time>2020-01-24T06:39:23Z</time>
      </trkpt>
      <trkpt lat="59.318943" lon="18.070925">
        <ele>0</ele>
        <time>2020-01-24T06:39:26Z</time>
      </trkpt>
      <trkpt lat="59.319048" lon="18.070895">
        <ele>0</ele>
        <time>2020-01-24T06:39:29Z</time>
      </trkpt>
      <trkpt lat="59.319154" lon="18.070928">
        <ele>0</ele>
        <time>2020-01-24T06:39:32Z</time>
      </trkpt>
      <trkpt lat="59.319269" lon="18.070916">
        <ele>0</ele>
        <time>2020-01-24T06:39:37Z</time>
      </trkpt>
      <trkpt lat="59.31936" lon="18.070877">
        <ele>0</ele>
        <time>2020-01-24T06:39:39Z</time>
      </trkpt>
      <trkpt lat="59.319456" lon="18.070809">
        <ele>0</ele>
        <time>2020-01-24T06:39:42Z</time>
      </trkpt>
      <trkpt lat="59.319498" lon="18.070739">
        <ele>0</ele>
        <time>2020-01-24T06:39:43Z</time>
      </trkpt>
      <trkpt lat="59.319537" lon="18.070681">
        <ele>0</ele>
        <time>2020-01-24T06:39:44Z</time>
      </trkpt>
      <trkpt lat="59.31958" lon="18.070643">
        <ele>0</ele>
        <time>2020-01-24T06:39:45Z</time>
      </trkpt>
      <trkpt lat="59.319621" lon="18.070622">
        <ele>0</ele>
        <time>2020-01-24T06:39:47Z</time>
      </trkpt>
      <trkpt lat="59.31965" lon="18.070631">
        <ele>0</ele>
        <time>2020-01-24T06:39:47Z</time>
      </trkpt>
      <trkpt lat="59.319701" lon="18.070653">
        <ele>0</ele>
        <time>2020-01-24T06:39:50Z</time>
      </trkpt>
      <trkpt lat="59.319721" lon="18.070679">
        <ele>0</ele>
        <time>2020-01-24T06:39:50Z</time>
      </trkpt>
      <trkpt lat="59.319742" lon="18.070717">
        <ele>0</ele>
        <time>2020-01-24T06:39:51Z</time>
      </trkpt>
      <trkpt lat="59.319765" lon="18.070748">
        <ele>0</ele>
        <time>2020-01-24T06:39:52Z</time>
      </trkpt>
      <trkpt lat="59.319802" lon="18.070757">
        <ele>0</ele>
        <time>2020-01-24T06:39:53Z</time>
      </trkpt>
      <trkpt lat="59.319837" lon="18.070771">
        <ele>0</ele>
        <time>2020-01-24T06:39:54Z</time>
      </trkpt>
      <trkpt lat="59.319872" lon="18.070789">
        <ele>0</ele>
        <time>2020-01-24T06:39:56Z</time>
      </trkpt>
      <trkpt lat="59.319904" lon="18.070807">
        <ele>0</ele>
        <time>2020-01-24T06:39:56Z</time>
      </trkpt>
      <trkpt lat="59.319932" lon="18.070834">
        <ele>0</ele>
        <time>2020-01-24T06:39:57Z</time>
      </trkpt>
      <trkpt lat="59.319962" lon="18.070855">
        <ele>0</ele>
        <time>2020-01-24T06:39:58Z</time>
      </trkpt>
      <trkpt lat="59.319994" lon="18.070872">
        <ele>0</ele>
        <time>2020-01-24T06:39:59Z</time>
      </trkpt>
      <trkpt lat="59.320021" lon="18.070893">
        <ele>0</ele>
        <time>2020-01-24T06:40:01Z</time>
      </trkpt>
      <trkpt lat="59.320051" lon="18.070922">
        <ele>1</ele>
        <time>2020-01-24T06:40:01Z</time>
      </trkpt>
      <trkpt lat="59.320078" lon="18.070948">
        <ele>1</ele>
        <time>2020-01-24T06:40:02Z</time>
      </trkpt>
      <trkpt lat="59.320108" lon="18.070978">
        <ele>2</ele>
        <time>2020-01-24T06:40:04Z</time>
      </trkpt>
      <trkpt lat="59.320137" lon="18.07101">
        <ele>2</ele>
        <time>2020-01-24T06:40:04Z</time>
      </trkpt>
      <trkpt lat="59.320163" lon="18.071037">
        <ele>2</ele>
        <time>2020-01-24T06:40:06Z</time>
      </trkpt>
      <trkpt lat="59.320186" lon="18.071063">
        <ele>2</ele>
        <time>2020-01-24T06:40:06Z</time>
      </trkpt>
      <trkpt lat="59.320199" lon="18.071119">
        <ele>2</ele>
        <time>2020-01-24T06:40:08Z</time>
      </trkpt>
      <trkpt lat="59.320202" lon="18.071165">
        <ele>2</ele>
        <time>2020-01-24T06:40:09Z</time>
      </trkpt>
      <trkpt lat="59.32021" lon="18.071216">
        <ele>2</ele>
        <time>2020-01-24T06:40:10Z</time>
      </trkpt>
      <trkpt lat="59.320218" lon="18.071271">
        <ele>3</ele>
        <time>2020-01-24T06:40:11Z</time>
      </trkpt>
      <trkpt lat="59.32023" lon="18.071318">
        <ele>3</ele>
        <time>2020-01-24T06:40:12Z</time>
      </trkpt>
      <trkpt lat="59.320245" lon="18.071371">
        <ele>3</ele>
        <time>2020-01-24T06:40:14Z</time>
      </trkpt>
      <trkpt lat="59.320264" lon="18.071414">
        <ele>2</ele>
        <time>2020-01-24T06:40:15Z</time>
      </trkpt>
      <trkpt lat="59.320285" lon="18.07145">
        <ele>3</ele>
        <time>2020-01-24T06:40:15Z</time>
      </trkpt>
      <trkpt lat="59.320309" lon="18.071478">
        <ele>3</ele>
        <time>2020-01-24T06:40:17Z</time>
      </trkpt>
      <trkpt lat="59.320331" lon="18.071503">
        <ele>3</ele>
        <time>2020-01-24T06:40:17Z</time>
      </trkpt>
      <trkpt lat="59.320358" lon="18.071518">
        <ele>3</ele>
        <time>2020-01-24T06:40:18Z</time>
      </trkpt>
      <trkpt lat="59.320382" lon="18.071542">
        <ele>3</ele>
        <time>2020-01-24T06:40:19Z</time>
      </trkpt>
      <trkpt lat="59.320404" lon="18.071556">
        <ele>3</ele>
        <time>2020-01-24T06:40:20Z</time>
      </trkpt>
      <trkpt lat="59.320433" lon="18.071565">
        <ele>3</ele>
        <time>2020-01-24T06:40:21Z</time>
      </trkpt>
      <trkpt lat="59.32046" lon="18.071558">
        <ele>3</ele>
        <time>2020-01-24T06:40:22Z</time>
      </trkpt>
      <trkpt lat="59.320484" lon="18.071556">
        <ele>3</ele>
        <time>2020-01-24T06:40:23Z</time>
      </trkpt>
      <trkpt lat="59.320505" lon="18.071552">
        <ele>3</ele>
        <time>2020-01-24T06:40:25Z</time>
      </trkpt>
      <trkpt lat="59.32053" lon="18.071553">
        <ele>3</ele>
        <time>2020-01-24T06:40:25Z</time>
      </trkpt>
      <trkpt lat="59.320556" lon="18.071566">
        <ele>3</ele>
        <time>2020-01-24T06:40:26Z</time>
      </trkpt>
      <trkpt lat="59.320582" lon="18.071581">
        <ele>3</ele>
        <time>2020-01-24T06:40:27Z</time>
      </trkpt>
      <trkpt lat="59.32061" lon="18.071595">
        <ele>3</ele>
        <time>2020-01-24T06:40:28Z</time>
      </trkpt>
      <trkpt lat="59.32064" lon="18.071603">
        <ele>4</ele>
        <time>2020-01-24T06:40:29Z</time>
      </trkpt>
      <trkpt lat="59.320666" lon="18.07162">
        <ele>4</ele>
        <time>2020-01-24T06:40:30Z</time>
      </trkpt>
      <trkpt lat="59.320691" lon="18.071647">
        <ele>4</ele>
        <time>2020-01-24T06:40:31Z</time>
      </trkpt>
      <trkpt lat="59.320717" lon="18.071676">
        <ele>4</ele>
        <time>2020-01-24T06:40:33Z</time>
      </trkpt>
      <trkpt lat="59.320739" lon="18.07171">
        <ele>4</ele>
        <time>2020-01-24T06:40:34Z</time>
      </trkpt>
      <trkpt lat="59.320757" lon="18.071753">
        <ele>4</ele>
        <time>2020-01-24T06:40:34Z</time>
      </trkpt>
      <trkpt lat="59.320769" lon="18.071797">
        <ele>4</ele>
        <time>2020-01-24T06:40:35Z</time>
      </trkpt>
      <trkpt lat="59.320782" lon="18.071843">
        <ele>4</ele>
        <time>2020-01-24T06:40:36Z</time>
      </trkpt>
      <trkpt lat="59.320796" lon="18.071892">
        <ele>4</ele>
        <time>2020-01-24T06:40:37Z</time>
      </trkpt>
      <trkpt lat="59.320809" lon="18.071943">
        <ele>4</ele>
        <time>2020-01-24T06:40:38Z</time>
      </trkpt>
      <trkpt lat="59.320824" lon="18.071995">
        <ele>3</ele>
        <time>2020-01-24T06:40:39Z</time>
      </trkpt>
      <trkpt lat="59.320838" lon="18.07205">
        <ele>3</ele>
        <time>2020-01-24T06:40:41Z</time>
      </trkpt>
      <trkpt lat="59.320855" lon="18.072099">
        <ele>3</ele>
        <time>2020-01-24T06:40:41Z</time>
      </trkpt>
      <trkpt lat="59.320869" lon="18.07214">
        <ele>3</ele>
        <time>2020-01-24T06:40:43Z</time>
      </trkpt>
      <trkpt lat="59.320886" lon="18.072184">
        <ele>3</ele>
        <time>2020-01-24T06:40:43Z</time>
      </trkpt>
      <trkpt lat="59.320907" lon="18.072215">
        <ele>3</ele>
        <time>2020-01-24T06:40:44Z</time>
      </trkpt>
      <trkpt lat="59.320929" lon="18.072241">
        <ele>3</ele>
        <time>2020-01-24T06:40:45Z</time>
      </trkpt>
      <trkpt lat="59.320952" lon="18.072267">
        <ele>3</ele>
        <time>2020-01-24T06:40:46Z</time>
      </trkpt>
      <trkpt lat="59.320975" lon="18.072288">
        <ele>3</ele>
        <time>2020-01-24T06:40:47Z</time>
      </trkpt>
      <trkpt lat="59.320997" lon="18.072306">
        <ele>3</ele>
        <time>2020-01-24T06:40:48Z</time>
      </trkpt>
      <trkpt lat="59.32102" lon="18.072326">
        <ele>3</ele>
        <time>2020-01-24T06:40:49Z</time>
      </trkpt>
      <trkpt lat="59.321044" lon="18.072348">
        <ele>3</ele>
        <time>2020-01-24T06:40:51Z</time>
      </trkpt>
      <trkpt lat="59.321068" lon="18.072369">
        <ele>3</ele>
        <time>2020-01-24T06:40:51Z</time>
      </trkpt>
      <trkpt lat="59.321095" lon="18.072389">
        <ele>3</ele>
        <time>2020-01-24T06:40:53Z</time>
      </trkpt>
      <trkpt lat="59.32112" lon="18.072406">
        <ele>3</ele>
        <time>2020-01-24T06:40:53Z</time>
      </trkpt>
      <trkpt lat="59.321143" lon="18.07242">
        <ele>2</ele>
        <time>2020-01-24T06:40:54Z</time>
      </trkpt>
      <trkpt lat="59.321166" lon="18.072446">
        <ele>2</ele>
        <time>2020-01-24T06:40:55Z</time>
      </trkpt>
      <trkpt lat="59.321188" lon="18.072461">
        <ele>2</ele>
        <time>2020-01-24T06:40:56Z</time>
      </trkpt>
      <trkpt lat="59.321212" lon="18.072479">
        <ele>2</ele>
        <time>2020-01-24T06:40:57Z</time>
      </trkpt>
      <trkpt lat="59.321237" lon="18.072498">
        <ele>2</ele>
        <time>2020-01-24T06:40:58Z</time>
      </trkpt>
      <trkpt lat="59.32126" lon="18.072512">
        <ele>2</ele>
        <time>2020-01-24T06:40:59Z</time>
      </trkpt>
      <trkpt lat="59.32129" lon="18.072527">
        <ele>2</ele>
        <time>2020-01-24T06:41:00Z</time>
      </trkpt>
      <trkpt lat="59.321314" lon="18.072544">
        <ele>2</ele>
        <time>2020-01-24T06:41:02Z</time>
      </trkpt>
      <trkpt lat="59.321343" lon="18.072561">
        <ele>2</ele>
        <time>2020-01-24T06:41:02Z</time>
      </trkpt>
      <trkpt lat="59.321365" lon="18.07258">
        <ele>1</ele>
        <time>2020-01-24T06:41:03Z</time>
      </trkpt>
      <trkpt lat="59.321393" lon="18.072597">
        <ele>1</ele>
        <time>2020-01-24T06:41:04Z</time>
      </trkpt>
      <trkpt lat="59.321419" lon="18.072615">
        <ele>1</ele>
        <time>2020-01-24T06:41:05Z</time>
      </trkpt>
      <trkpt lat="59.321443" lon="18.07263">
        <ele>1</ele>
        <time>2020-01-24T06:41:06Z</time>
      </trkpt>
      <trkpt lat="59.321464" lon="18.072653">
        <ele>1</ele>
        <time>2020-01-24T06:41:07Z</time>
      </trkpt>
      <trkpt lat="59.321494" lon="18.07267">
        <ele>1</ele>
        <time>2020-01-24T06:41:08Z</time>
      </trkpt>
      <trkpt lat="59.321522" lon="18.072682">
        <ele>0</ele>
        <time>2020-01-24T06:41:10Z</time>
      </trkpt>
      <trkpt lat="59.321547" lon="18.072696">
        <ele>0</ele>
        <time>2020-01-24T06:41:10Z</time>
      </trkpt>
      <trkpt lat="59.32157" lon="18.072712">
        <ele>0</ele>
        <time>2020-01-24T06:41:12Z</time>
      </trkpt>
      <trkpt lat="59.321588" lon="18.072724">
        <ele>0</ele>
        <time>2020-01-24T06:41:12Z</time>
      </trkpt>
      <trkpt lat="59.321628" lon="18.072747">
        <ele>0</ele>
        <time>2020-01-24T06:41:14Z</time>
      </trkpt>
      <trkpt lat="59.32165" lon="18.072763">
        <ele>0</ele>
        <time>2020-01-24T06:41:15Z</time>
      </trkpt>
      <trkpt lat="59.32167" lon="18.072776">
        <ele>0</ele>
        <time>2020-01-24T06:41:16Z</time>
      </trkpt>
      <trkpt lat="59.321691" lon="18.072796">
        <ele>0</ele>
        <time>2020-01-24T06:41:17Z</time>
      </trkpt>
      <trkpt lat="59.321713" lon="18.072812">
        <ele>0</ele>
        <time>2020-01-24T06:41:18Z</time>
      </trkpt>
      <trkpt lat="59.321737" lon="18.07282">
        <ele>0</ele>
        <time>2020-01-24T06:41:19Z</time>
      </trkpt>
      <trkpt lat="59.321763" lon="18.072823">
        <ele>0</ele>
        <time>2020-01-24T06:41:20Z</time>
      </trkpt>
      <trkpt lat="59.321788" lon="18.072826">
        <ele>0</ele>
        <time>2020-01-24T06:41:22Z</time>
      </trkpt>
      <trkpt lat="59.321818" lon="18.07284">
        <ele>0</ele>
        <time>2020-01-24T06:41:22Z</time>
      </trkpt>
      <trkpt lat="59.321842" lon="18.072859">
        <ele>0</ele>
        <time>2020-01-24T06:41:23Z</time>
      </trkpt>
      <trkpt lat="59.321866" lon="18.07289">
        <ele>0</ele>
        <time>2020-01-24T06:41:25Z</time>
      </trkpt>
      <trkpt lat="59.321886" lon="18.072925">
        <ele>0</ele>
        <time>2020-01-24T06:41:25Z</time>
      </trkpt>
      <trkpt lat="59.321904" lon="18.072953">
        <ele>0</ele>
        <time>2020-01-24T06:41:26Z</time>
      </trkpt>
      <trkpt lat="59.321923" lon="18.072985">
        <ele>0</ele>
        <time>2020-01-24T06:41:28Z</time>
      </trkpt>
      <trkpt lat="59.321938" lon="18.07301">
        <ele>0</ele>
        <time>2020-01-24T06:41:28Z</time>
      </trkpt>
      <trkpt lat="59.321948" lon="18.073043">
        <ele>0</ele>
        <time>2020-01-24T06:41:29Z</time>
      </trkpt>
      <trkpt lat="59.321956" lon="18.073078">
        <ele>0</ele>
        <time>2020-01-24T06:41:31Z</time>
      </trkpt>
      <trkpt lat="59.32196" lon="18.073124">
        <ele>0</ele>
        <time>2020-01-24T06:41:31Z</time>
      </trkpt>
      <trkpt lat="59.321959" lon="18.073177">
        <ele>0</ele>
        <time>2020-01-24T06:41:33Z</time>
      </trkpt>
      <trkpt lat="59.32194" lon="18.073354">
        <ele>0</ele>
        <time>2020-01-24T06:41:36Z</time>
      </trkpt>
      <trkpt lat="59.32192" lon="18.073537">
        <ele>0</ele>
        <time>2020-01-24T06:41:38Z</time>
      </trkpt>
      <trkpt lat="59.321885" lon="18.073739">
        <ele>0</ele>
        <time>2020-01-24T06:41:42Z</time>
      </trkpt>
      <trkpt lat="59.321856" lon="18.073906">
        <ele>0</ele>
        <time>2020-01-24T06:41:46Z</time>
      </trkpt>
      <trkpt lat="59.321921" lon="18.074052">
        <ele>0</ele>
        <time>2020-01-24T06:41:50Z</time>
      </trkpt>
      <trkpt lat="59.321946" lon="18.074101">
        <ele>0</ele>
        <time>2020-01-24T06:41:50Z</time>
      </trkpt>
      <trkpt lat="59.321971" lon="18.07414">
        <ele>0</ele>
        <time>2020-01-24T06:41:51Z</time>
      </trkpt>
      <trkpt lat="59.322044" lon="18.074277">
        <ele>0</ele>
        <time>2020-01-24T06:41:54Z</time>
      </trkpt>
      <trkpt lat="59.322114" lon="18.074439">
        <ele>0</ele>
        <time>2020-01-24T06:41:57Z</time>
      </trkpt>
      <trkpt lat="59.322198" lon="18.074589">
        <ele>0</ele>
        <time>2020-01-24T06:42:00Z</time>
      </trkpt>
      <trkpt lat="59.322328" lon="18.074578">
        <ele>0</ele>
        <time>2020-01-24T06:42:03Z</time>
      </trkpt>
      <trkpt lat="59.322434" lon="18.074628">
        <ele>0</ele>
        <time>2020-01-24T06:42:06Z</time>
      </trkpt>
      <trkpt lat="59.322553" lon="18.074665">
        <ele>0</ele>
        <time>2020-01-24T06:42:09Z</time>
      </trkpt>
      <trkpt lat="59.322635" lon="18.074778">
        <ele>0</ele>
        <time>2020-01-24T06:42:12Z</time>
      </trkpt>
      <trkpt lat="59.322724" lon="18.074866">
        <ele>0</ele>
        <time>2020-01-24T06:42:15Z</time>
      </trkpt>
      <trkpt lat="59.322797" lon="18.074994">
        <ele>0</ele>
        <time>2020-01-24T06:42:18Z</time>
      </trkpt>
      <trkpt lat="59.322889" lon="18.075078">
        <ele>0</ele>
        <time>2020-01-24T06:42:21Z</time>
      </trkpt>
      <trkpt lat="59.322988" lon="18.075161">
        <ele>0</ele>
        <time>2020-01-24T06:42:24Z</time>
      </trkpt>
      <trkpt lat="59.323095" lon="18.075207">
        <ele>0</ele>
        <time>2020-01-24T06:42:28Z</time>
      </trkpt>
      <trkpt lat="59.323225" lon="18.075165">
        <ele>0</ele>
        <time>2020-01-24T06:42:30Z</time>
      </trkpt>
      <trkpt lat="59.323335" lon="18.075239">
        <ele>0</ele>
        <time>2020-01-24T06:42:33Z</time>
      </trkpt>
      <trkpt lat="59.32343" lon="18.075189">
        <ele>0</ele>
        <time>2020-01-24T06:42:35Z</time>
      </trkpt>
      <trkpt lat="59.32355" lon="18.075149">
        <ele>0</ele>
        <time>2020-01-24T06:42:38Z</time>
      </trkpt>
      <trkpt lat="59.32365" lon="18.075186">
        <ele>0</ele>
        <time>2020-01-24T06:42:41Z</time>
      </trkpt>
      <trkpt lat="59.32376" lon="18.07526">
        <ele>0</ele>
        <time>2020-01-24T06:42:46Z</time>
      </trkpt>
      <trkpt lat="59.323872" lon="18.075306">
        <ele>0</ele>
        <time>2020-01-24T06:42:50Z</time>
      </trkpt>
      <trkpt lat="59.323984" lon="18.075307">
        <ele>0</ele>
        <time>2020-01-24T06:42:54Z</time>
      </trkpt>
      <trkpt lat="59.324078" lon="18.075363">
        <ele>0</ele>
        <time>2020-01-24T06:42:58Z</time>
      </trkpt>
      <trkpt lat="59.324181" lon="18.075382">
        <ele>0</ele>
        <time>2020-01-24T06:43:02Z</time>
      </trkpt>
      <trkpt lat="59.324253" lon="18.075401">
        <ele>0</ele>
        <time>2020-01-24T06:43:06Z</time>
      </trkpt>
      <trkpt lat="59.324275" lon="18.075411">
        <ele>0</ele>
        <time>2020-01-24T06:43:06Z</time>
      </trkpt>
      <trkpt lat="59.324319" lon="18.075414">
        <ele>0</ele>
        <time>2020-01-24T06:43:08Z</time>
      </trkpt>
      <trkpt lat="59.324344" lon="18.07541">
        <ele>0</ele>
        <time>2020-01-24T06:43:09Z</time>
      </trkpt>
      <trkpt lat="59.324434" lon="18.075402">
        <ele>0</ele>
        <time>2020-01-24T06:43:13Z</time>
      </trkpt>
      <trkpt lat="59.324468" lon="18.0754">
        <ele>0</ele>
        <time>2020-01-24T06:43:13Z</time>
      </trkpt>
      <trkpt lat="59.324491" lon="18.075401">
        <ele>0</ele>
        <time>2020-01-24T06:43:14Z</time>
      </trkpt>
      <trkpt lat="59.32451" lon="18.075406">
        <ele>0</ele>
        <time>2020-01-24T06:43:15Z</time>
      </trkpt>
      <trkpt lat="59.324583" lon="18.075416">
        <ele>0</ele>
        <time>2020-01-24T06:43:18Z</time>
      </trkpt>
      <trkpt lat="59.32461" lon="18.075421">
        <ele>0</ele>
        <time>2020-01-24T06:43:19Z</time>
      </trkpt>
      <trkpt lat="59.324712" lon="18.075513">
        <ele>0</ele>
        <time>2020-01-24T06:43:25Z</time>
      </trkpt>
      <trkpt lat="59.324821" lon="18.075493">
        <ele>0</ele>
        <time>2020-01-24T06:43:28Z</time>
      </trkpt>
      <trkpt lat="59.32489" lon="18.075535">
        <ele>0</ele>
        <time>2020-01-24T06:43:31Z</time>
      </trkpt>
      <trkpt lat="59.324908" lon="18.075549">
        <ele>0</ele>
        <time>2020-01-24T06:43:32Z</time>
      </trkpt>
      <trkpt lat="59.324927" lon="18.075556">
        <ele>0</ele>
        <time>2020-01-24T06:43:33Z</time>
      </trkpt>
      <trkpt lat="59.324979" lon="18.075562">
        <ele>0</ele>
        <time>2020-01-24T06:43:35Z</time>
      </trkpt>
      <trkpt lat="59.325008" lon="18.075563">
        <ele>0</ele>
        <time>2020-01-24T06:43:36Z</time>
      </trkpt>
      <trkpt lat="59.32506" lon="18.075556">
        <ele>0</ele>
        <time>2020-01-24T06:43:38Z</time>
      </trkpt>
      <trkpt lat="59.32509" lon="18.075553">
        <ele>0</ele>
        <time>2020-01-24T06:43:39Z</time>
      </trkpt>
      <trkpt lat="59.325117" lon="18.075545">
        <ele>0</ele>
        <time>2020-01-24T06:43:40Z</time>
      </trkpt>
      <trkpt lat="59.325147" lon="18.07553">
        <ele>0</ele>
        <time>2020-01-24T06:43:41Z</time>
      </trkpt>
      <trkpt lat="59.325175" lon="18.075524">
        <ele>0</ele>
        <time>2020-01-24T06:43:42Z</time>
      </trkpt>
      <trkpt lat="59.325199" lon="18.075516">
        <ele>0</ele>
        <time>2020-01-24T06:43:44Z</time>
      </trkpt>
      <trkpt lat="59.325228" lon="18.075504">
        <ele>0</ele>
        <time>2020-01-24T06:43:44Z</time>
      </trkpt>
      <trkpt lat="59.32525" lon="18.075492">
        <ele>0</ele>
        <time>2020-01-24T06:43:45Z</time>
      </trkpt>
      <trkpt lat="59.325274" lon="18.075482">
        <ele>0</ele>
        <time>2020-01-24T06:43:46Z</time>
      </trkpt>
      <trkpt lat="59.32537" lon="18.075466">
        <ele>0</ele>
        <time>2020-01-24T06:43:51Z</time>
      </trkpt>
      <trkpt lat="59.32539" lon="18.075463">
        <ele>0</ele>
        <time>2020-01-24T06:43:52Z</time>
      </trkpt>
      <trkpt lat="59.325409" lon="18.075466">
        <ele>0</ele>
        <time>2020-01-24T06:43:54Z</time>
      </trkpt>
      <trkpt lat="59.325436" lon="18.075552">
        <ele>0</ele>
        <time>2020-01-24T06:43:55Z</time>
      </trkpt>
      <trkpt lat="59.325455" lon="18.07558">
        <ele>0</ele>
        <time>2020-01-24T06:43:56Z</time>
      </trkpt>
      <trkpt lat="59.325474" lon="18.07561">
        <ele>0</ele>
        <time>2020-01-24T06:43:57Z</time>
      </trkpt>
      <trkpt lat="59.325492" lon="18.075628">
        <ele>0</ele>
        <time>2020-01-24T06:43:58Z</time>
      </trkpt>
      <trkpt lat="59.325517" lon="18.075646">
        <ele>0</ele>
        <time>2020-01-24T06:43:59Z</time>
      </trkpt>
      <trkpt lat="59.325544" lon="18.075658">
        <ele>0</ele>
        <time>2020-01-24T06:44:00Z</time>
      </trkpt>
      <trkpt lat="59.325569" lon="18.075659">
        <ele>0</ele>
        <time>2020-01-24T06:44:01Z</time>
      </trkpt>
      <trkpt lat="59.325591" lon="18.075654">
        <ele>0</ele>
        <time>2020-01-24T06:44:03Z</time>
      </trkpt>
      <trkpt lat="59.32561" lon="18.075647">
        <ele>0</ele>
        <time>2020-01-24T06:44:03Z</time>
      </trkpt>
      <trkpt lat="59.325633" lon="18.075637">
        <ele>0</ele>
        <time>2020-01-24T06:44:04Z</time>
      </trkpt>
      <trkpt lat="59.325655" lon="18.075631">
        <ele>0</ele>
        <time>2020-01-24T06:44:05Z</time>
      </trkpt>
      <trkpt lat="59.325673" lon="18.075614">
        <ele>0</ele>
        <time>2020-01-24T06:44:06Z</time>
      </trkpt>
      <trkpt lat="59.325695" lon="18.075593">
        <ele>0</ele>
        <time>2020-01-24T06:44:07Z</time>
      </trkpt>
      <trkpt lat="59.325718" lon="18.075576">
        <ele>0</ele>
        <time>2020-01-24T06:44:08Z</time>
      </trkpt>
      <trkpt lat="59.325741" lon="18.075559">
        <ele>0</ele>
        <time>2020-01-24T06:44:09Z</time>
      </trkpt>
      <trkpt lat="59.325767" lon="18.075545">
        <ele>0</ele>
        <time>2020-01-24T06:44:10Z</time>
      </trkpt>
      <trkpt lat="59.325789" lon="18.075519">
        <ele>0</ele>
        <time>2020-01-24T06:44:11Z</time>
      </trkpt>
      <trkpt lat="59.325808" lon="18.075497">
        <ele>0</ele>
        <time>2020-01-24T06:44:12Z</time>
      </trkpt>
      <trkpt lat="59.32583" lon="18.075471">
        <ele>0</ele>
        <time>2020-01-24T06:44:14Z</time>
      </trkpt>
      <trkpt lat="59.325856" lon="18.075443">
        <ele>0</ele>
        <time>2020-01-24T06:44:15Z</time>
      </trkpt>
      <trkpt lat="59.325878" lon="18.07542">
        <ele>0</ele>
        <time>2020-01-24T06:44:15Z</time>
      </trkpt>
      <trkpt lat="59.3259" lon="18.075392">
        <ele>0</ele>
        <time>2020-01-24T06:44:16Z</time>
      </trkpt>
      <trkpt lat="59.325923" lon="18.075369">
        <ele>0</ele>
        <time>2020-01-24T06:44:17Z</time>
      </trkpt>
      <trkpt lat="59.325945" lon="18.075345">
        <ele>0</ele>
        <time>2020-01-24T06:44:18Z</time>
      </trkpt>
      <trkpt lat="59.325966" lon="18.075328">
        <ele>0</ele>
        <time>2020-01-24T06:44:19Z</time>
      </trkpt>
      <trkpt lat="59.325985" lon="18.075311">
        <ele>0</ele>
        <time>2020-01-24T06:44:20Z</time>
      </trkpt>
      <trkpt lat="59.326006" lon="18.075281">
        <ele>0</ele>
        <time>2020-01-24T06:44:22Z</time>
      </trkpt>
      <trkpt lat="59.326025" lon="18.075246">
        <ele>0</ele>
        <time>2020-01-24T06:44:22Z</time>
      </trkpt>
      <trkpt lat="59.32605" lon="18.075222">
        <ele>0</ele>
        <time>2020-01-24T06:44:23Z</time>
      </trkpt>
      <trkpt lat="59.32607" lon="18.075202">
        <ele>0</ele>
        <time>2020-01-24T06:44:24Z</time>
      </trkpt>
      <trkpt lat="59.32609" lon="18.075175">
        <ele>0</ele>
        <time>2020-01-24T06:44:25Z</time>
      </trkpt>
      <trkpt lat="59.326109" lon="18.075143">
        <ele>0</ele>
        <time>2020-01-24T06:44:26Z</time>
      </trkpt>
      <trkpt lat="59.32613" lon="18.075117">
        <ele>0</ele>
        <time>2020-01-24T06:44:27Z</time>
      </trkpt>
      <trkpt lat="59.326151" lon="18.075095">
        <ele>0</ele>
        <time>2020-01-24T06:44:28Z</time>
      </trkpt>
      <trkpt lat="59.326172" lon="18.075072">
        <ele>0</ele>
        <time>2020-01-24T06:44:29Z</time>
      </trkpt>
      <trkpt lat="59.326195" lon="18.075043">
        <ele>0</ele>
        <time>2020-01-24T06:44:30Z</time>
      </trkpt>
      <trkpt lat="59.326224" lon="18.075039">
        <ele>0</ele>
        <time>2020-01-24T06:44:32Z</time>
      </trkpt>
      <trkpt lat="59.326247" lon="18.075022">
        <ele>0</ele>
        <time>2020-01-24T06:44:32Z</time>
      </trkpt>
      <trkpt lat="59.326262" lon="18.074997">
        <ele>0</ele>
        <time>2020-01-24T06:44:33Z</time>
      </trkpt>
      <trkpt lat="59.32628" lon="18.074966">
        <ele>0</ele>
        <time>2020-01-24T06:44:35Z</time>
      </trkpt>
      <trkpt lat="59.326302" lon="18.074946">
        <ele>0</ele>
        <time>2020-01-24T06:44:35Z</time>
      </trkpt>
      <trkpt lat="59.326324" lon="18.074927">
        <ele>0</ele>
        <time>2020-01-24T06:44:36Z</time>
      </trkpt>
      <trkpt lat="59.326348" lon="18.074913">
        <ele>0</ele>
        <time>2020-01-24T06:44:38Z</time>
      </trkpt>
      <trkpt lat="59.326372" lon="18.074893">
        <ele>0</ele>
        <time>2020-01-24T06:44:38Z</time>
      </trkpt>
      <trkpt lat="59.326393" lon="18.074869">
        <ele>0</ele>
        <time>2020-01-24T06:44:39Z</time>
      </trkpt>
      <trkpt lat="59.32642" lon="18.074847">
        <ele>0</ele>
        <time>2020-01-24T06:44:41Z</time>
      </trkpt>
      <trkpt lat="59.326446" lon="18.074833">
        <ele>0</ele>
        <time>2020-01-24T06:44:41Z</time>
      </trkpt>
      <trkpt lat="59.326472" lon="18.074819">
        <ele>0</ele>
        <time>2020-01-24T06:44:42Z</time>
      </trkpt>
      <trkpt lat="59.326496" lon="18.074802">
        <ele>0</ele>
        <time>2020-01-24T06:44:43Z</time>
      </trkpt>
      <trkpt lat="59.326521" lon="18.074791">
        <ele>0</ele>
        <time>2020-01-24T06:44:44Z</time>
      </trkpt>
      <trkpt lat="59.326545" lon="18.074779">
        <ele>0</ele>
        <time>2020-01-24T06:44:45Z</time>
      </trkpt>
      <trkpt lat="59.326569" lon="18.074766">
        <ele>0</ele>
        <time>2020-01-24T06:44:46Z</time>
      </trkpt>
      <trkpt lat="59.326596" lon="18.074754">
        <ele>0</ele>
        <time>2020-01-24T06:44:47Z</time>
      </trkpt>
      <trkpt lat="59.326626" lon="18.074742">
        <ele>0</ele>
        <time>2020-01-24T06:44:48Z</time>
      </trkpt>
      <trkpt lat="59.326651" lon="18.074724">
        <ele>0</ele>
        <time>2020-01-24T06:44:49Z</time>
      </trkpt>
      <trkpt lat="59.326677" lon="18.074703">
        <ele>0</ele>
        <time>2020-01-24T06:44:50Z</time>
      </trkpt>
      <trkpt lat="59.326701" lon="18.074687">
        <ele>0</ele>
        <time>2020-01-24T06:44:52Z</time>
      </trkpt>
      <trkpt lat="59.326723" lon="18.074667">
        <ele>0</ele>
        <time>2020-01-24T06:44:52Z</time>
      </trkpt>
      <trkpt lat="59.326749" lon="18.074645">
        <ele>0</ele>
        <time>2020-01-24T06:44:54Z</time>
      </trkpt>
      <trkpt lat="59.326773" lon="18.074621">
        <ele>0</ele>
        <time>2020-01-24T06:44:54Z</time>
      </trkpt>
      <trkpt lat="59.326797" lon="18.074593">
        <ele>0</ele>
        <time>2020-01-24T06:44:55Z</time>
      </trkpt>
      <trkpt lat="59.326822" lon="18.074564">
        <ele>0</ele>
        <time>2020-01-24T06:44:56Z</time>
      </trkpt>
      <trkpt lat="59.326845" lon="18.074531">
        <ele>0</ele>
        <time>2020-01-24T06:44:57Z</time>
      </trkpt>
      <trkpt lat="59.326862" lon="18.074498">
        <ele>0</ele>
        <time>2020-01-24T06:44:58Z</time>
      </trkpt>
      <trkpt lat="59.326881" lon="18.074466">
        <ele>0</ele>
        <time>2020-01-24T06:45:00Z</time>
      </trkpt>
      <trkpt lat="59.326904" lon="18.07443">
        <ele>0</ele>
        <time>2020-01-24T06:45:01Z</time>
      </trkpt>
      <trkpt lat="59.326926" lon="18.0744">
        <ele>0</ele>
        <time>2020-01-24T06:45:02Z</time>
      </trkpt>
      <trkpt lat="59.326946" lon="18.074372">
        <ele>0</ele>
        <time>2020-01-24T06:45:02Z</time>
      </trkpt>
      <trkpt lat="59.326964" lon="18.074345">
        <ele>0</ele>
        <time>2020-01-24T06:45:03Z</time>
      </trkpt>
      <trkpt lat="59.326985" lon="18.074315">
        <ele>0</ele>
        <time>2020-01-24T06:45:04Z</time>
      </trkpt>
      <trkpt lat="59.327007" lon="18.074286">
        <ele>0</ele>
        <time>2020-01-24T06:45:06Z</time>
      </trkpt>
      <trkpt lat="59.327028" lon="18.074255">
        <ele>0</ele>
        <time>2020-01-24T06:45:06Z</time>
      </trkpt>
      <trkpt lat="59.327049" lon="18.074224">
        <ele>0</ele>
        <time>2020-01-24T06:45:07Z</time>
      </trkpt>
      <trkpt lat="59.32707" lon="18.074191">
        <ele>0</ele>
        <time>2020-01-24T06:45:09Z</time>
      </trkpt>
      <trkpt lat="59.327092" lon="18.074157">
        <ele>0</ele>
        <time>2020-01-24T06:45:09Z</time>
      </trkpt>
      <trkpt lat="59.327115" lon="18.074126">
        <ele>0</ele>
        <time>2020-01-24T06:45:10Z</time>
      </trkpt>
      <trkpt lat="59.327135" lon="18.074088">
        <ele>0</ele>
        <time>2020-01-24T06:45:11Z</time>
      </trkpt>
      <trkpt lat="59.327159" lon="18.074052">
        <ele>0</ele>
        <time>2020-01-24T06:45:13Z</time>
      </trkpt>
      <trkpt lat="59.32718" lon="18.074014">
        <ele>0</ele>
        <time>2020-01-24T06:45:13Z</time>
      </trkpt>
      <trkpt lat="59.327206" lon="18.073999">
        <ele>0</ele>
        <time>2020-01-24T06:45:14Z</time>
      </trkpt>
      <trkpt lat="59.327237" lon="18.073984">
        <ele>0</ele>
        <time>2020-01-24T06:45:15Z</time>
      </trkpt>
      <trkpt lat="59.327259" lon="18.073965">
        <ele>0</ele>
        <time>2020-01-24T06:45:16Z</time>
      </trkpt>
      <trkpt lat="59.327281" lon="18.073951">
        <ele>0</ele>
        <time>2020-01-24T06:45:17Z</time>
      </trkpt>
      <trkpt lat="59.327305" lon="18.073932">
        <ele>0</ele>
        <time>2020-01-24T06:45:19Z</time>
      </trkpt>
      <trkpt lat="59.327329" lon="18.073909">
        <ele>0</ele>
        <time>2020-01-24T06:45:19Z</time>
      </trkpt>
      <trkpt lat="59.327351" lon="18.073891">
        <ele>0</ele>
        <time>2020-01-24T06:45:20Z</time>
      </trkpt>
      <trkpt lat="59.327373" lon="18.073872">
        <ele>0</ele>
        <time>2020-01-24T06:45:21Z</time>
      </trkpt>
      <trkpt lat="59.327399" lon="18.073847">
        <ele>0</ele>
        <time>2020-01-24T06:45:22Z</time>
      </trkpt>
      <trkpt lat="59.327421" lon="18.073818">
        <ele>0</ele>
        <time>2020-01-24T06:45:23Z</time>
      </trkpt>
      <trkpt lat="59.327442" lon="18.073793">
        <ele>0</ele>
        <time>2020-01-24T06:45:24Z</time>
      </trkpt>
      <trkpt lat="59.327463" lon="18.073771">
        <ele>0</ele>
        <time>2020-01-24T06:45:25Z</time>
      </trkpt>
      <trkpt lat="59.327484" lon="18.073746">
        <ele>0</ele>
        <time>2020-01-24T06:45:26Z</time>
      </trkpt>
      <trkpt lat="59.327507" lon="18.073728">
        <ele>0</ele>
        <time>2020-01-24T06:45:27Z</time>
      </trkpt>
      <trkpt lat="59.327526" lon="18.073697">
        <ele>0</ele>
        <time>2020-01-24T06:45:29Z</time>
      </trkpt>
      <trkpt lat="59.327547" lon="18.073665">
        <ele>0</ele>
        <time>2020-01-24T06:45:29Z</time>
      </trkpt>
      <trkpt lat="59.327565" lon="18.073635">
        <ele>0</ele>
        <time>2020-01-24T06:45:30Z</time>
      </trkpt>
      <trkpt lat="59.327581" lon="18.073599">
        <ele>0</ele>
        <time>2020-01-24T06:45:32Z</time>
      </trkpt>
      <trkpt lat="59.327601" lon="18.073569">
        <ele>0</ele>
        <time>2020-01-24T06:45:32Z</time>
      </trkpt>
      <trkpt lat="59.327618" lon="18.073531">
        <ele>0</ele>
        <time>2020-01-24T06:45:33Z</time>
      </trkpt>
      <trkpt lat="59.327637" lon="18.073512">
        <ele>0</ele>
        <time>2020-01-24T06:45:35Z</time>
      </trkpt>
      <trkpt lat="59.327655" lon="18.073489">
        <ele>0</ele>
        <time>2020-01-24T06:45:35Z</time>
      </trkpt>
      <trkpt lat="59.327675" lon="18.073468">
        <ele>0</ele>
        <time>2020-01-24T06:45:36Z</time>
      </trkpt>
      <trkpt lat="59.327697" lon="18.073451">
        <ele>0</ele>
        <time>2020-01-24T06:45:38Z</time>
      </trkpt>
      <trkpt lat="59.327715" lon="18.07343">
        <ele>0</ele>
        <time>2020-01-24T06:45:38Z</time>
      </trkpt>
      <trkpt lat="59.327733" lon="18.073412">
        <ele>0</ele>
        <time>2020-01-24T06:45:39Z</time>
      </trkpt>
      <trkpt lat="59.327754" lon="18.073392">
        <ele>0</ele>
        <time>2020-01-24T06:45:40Z</time>
      </trkpt>
      <trkpt lat="59.327774" lon="18.073378">
        <ele>0</ele>
        <time>2020-01-24T06:45:41Z</time>
      </trkpt>
      <trkpt lat="59.327793" lon="18.073354">
        <ele>0</ele>
        <time>2020-01-24T06:45:43Z</time>
      </trkpt>
      <trkpt lat="59.327812" lon="18.073328">
        <ele>0</ele>
        <time>2020-01-24T06:45:43Z</time>
      </trkpt>
      <trkpt lat="59.32783" lon="18.073303">
        <ele>0</ele>
        <time>2020-01-24T06:45:44Z</time>
      </trkpt>
      <trkpt lat="59.327856" lon="18.073289">
        <ele>0</ele>
        <time>2020-01-24T06:45:45Z</time>
      </trkpt>
      <trkpt lat="59.327884" lon="18.073275">
        <ele>0</ele>
        <time>2020-01-24T06:45:46Z</time>
      </trkpt>
      <trkpt lat="59.32791" lon="18.073264">
        <ele>0</ele>
        <time>2020-01-24T06:45:47Z</time>
      </trkpt>
      <trkpt lat="59.327933" lon="18.073248">
        <ele>0</ele>
        <time>2020-01-24T06:45:48Z</time>
      </trkpt>
      <trkpt lat="59.327958" lon="18.073238">
        <ele>0</ele>
        <time>2020-01-24T06:45:49Z</time>
      </trkpt>
      <trkpt lat="59.327982" lon="18.073231">
        <ele>0</ele>
        <time>2020-01-24T06:45:50Z</time>
      </trkpt>
      <trkpt lat="59.328004" lon="18.073229">
        <ele>0</ele>
        <time>2020-01-24T06:45:51Z</time>
      </trkpt>
      <trkpt lat="59.328028" lon="18.073222">
        <ele>0</ele>
        <time>2020-01-24T06:45:52Z</time>
      </trkpt>
      <trkpt lat="59.328052" lon="18.073211">
        <ele>0</ele>
        <time>2020-01-24T06:45:54Z</time>
      </trkpt>
      <trkpt lat="59.328076" lon="18.073201">
        <ele>0</ele>
        <time>2020-01-24T06:45:54Z</time>
      </trkpt>
      <trkpt lat="59.328103" lon="18.073188">
        <ele>0</ele>
        <time>2020-01-24T06:45:55Z</time>
      </trkpt>
      <trkpt lat="59.328125" lon="18.073182">
        <ele>0</ele>
        <time>2020-01-24T06:45:57Z</time>
      </trkpt>
      <trkpt lat="59.328146" lon="18.073184">
        <ele>0</ele>
        <time>2020-01-24T06:45:57Z</time>
      </trkpt>
      <trkpt lat="59.328168" lon="18.073186">
        <ele>0</ele>
        <time>2020-01-24T06:45:58Z</time>
      </trkpt>
      <trkpt lat="59.328191" lon="18.073192">
        <ele>0</ele>
        <time>2020-01-24T06:45:59Z</time>
      </trkpt>
      <trkpt lat="59.328215" lon="18.073198">
        <ele>0</ele>
        <time>2020-01-24T06:46:00Z</time>
      </trkpt>
      <trkpt lat="59.328237" lon="18.073206">
        <ele>0</ele>
        <time>2020-01-24T06:46:01Z</time>
      </trkpt>
      <trkpt lat="59.328261" lon="18.073204">
        <ele>0</ele>
        <time>2020-01-24T06:46:02Z</time>
      </trkpt>
      <trkpt lat="59.328284" lon="18.073204">
        <ele>0</ele>
        <time>2020-01-24T06:46:03Z</time>
      </trkpt>
      <trkpt lat="59.32831" lon="18.07321">
        <ele>0</ele>
        <time>2020-01-24T06:46:04Z</time>
      </trkpt>
      <trkpt lat="59.328336" lon="18.073218">
        <ele>0</ele>
        <time>2020-01-24T06:46:05Z</time>
      </trkpt>
      <trkpt lat="59.328358" lon="18.073232">
        <ele>0</ele>
        <time>2020-01-24T06:46:07Z</time>
      </trkpt>
      <trkpt lat="59.328383" lon="18.073237">
        <ele>0</ele>
        <time>2020-01-24T06:46:07Z</time>
      </trkpt>
      <trkpt lat="59.328407" lon="18.073238">
        <ele>0</ele>
        <time>2020-01-24T06:46:08Z</time>
      </trkpt>
      <trkpt lat="59.328434" lon="18.073246">
        <ele>0</ele>
        <time>2020-01-24T06:46:10Z</time>
      </trkpt>
      <trkpt lat="59.32846" lon="18.073254">
        <ele>0</ele>
        <time>2020-01-24T06:46:10Z</time>
      </trkpt>
      <trkpt lat="59.328482" lon="18.073264">
        <ele>0</ele>
        <time>2020-01-24T06:46:11Z</time>
      </trkpt>
      <trkpt lat="59.328503" lon="18.073272">
        <ele>0</ele>
        <time>2020-01-24T06:46:12Z</time>
      </trkpt>
      <trkpt lat="59.328527" lon="18.073274">
        <ele>0</ele>
        <time>2020-01-24T06:46:14Z</time>
      </trkpt>
      <trkpt lat="59.328554" lon="18.073284">
        <ele>0</ele>
        <time>2020-01-24T06:46:14Z</time>
      </trkpt>
      <trkpt lat="59.32858" lon="18.07329">
        <ele>0</ele>
        <time>2020-01-24T06:46:16Z</time>
      </trkpt>
      <trkpt lat="59.328601" lon="18.073294">
        <ele>0</ele>
        <time>2020-01-24T06:46:16Z</time>
      </trkpt>
      <trkpt lat="59.328623" lon="18.073303">
        <ele>0</ele>
        <time>2020-01-24T06:46:17Z</time>
      </trkpt>
      <trkpt lat="59.328643" lon="18.073304">
        <ele>0</ele>
        <time>2020-01-24T06:46:18Z</time>
      </trkpt>
      <trkpt lat="59.328667" lon="18.07331">
        <ele>0</ele>
        <time>2020-01-24T06:46:19Z</time>
      </trkpt>
      <trkpt lat="59.328691" lon="18.073312">
        <ele>0</ele>
        <time>2020-01-24T06:46:20Z</time>
      </trkpt>
      <trkpt lat="59.328718" lon="18.073318">
        <ele>0</ele>
        <time>2020-01-24T06:46:21Z</time>
      </trkpt>
      <trkpt lat="59.328744" lon="18.073324">
        <ele>0</ele>
        <time>2020-01-24T06:46:22Z</time>
      </trkpt>
      <trkpt lat="59.328774" lon="18.073328">
        <ele>0</ele>
        <time>2020-01-24T06:46:23Z</time>
      </trkpt>
      <trkpt lat="59.328805" lon="18.073336">
        <ele>0</ele>
        <time>2020-01-24T06:46:24Z</time>
      </trkpt>
      <trkpt lat="59.328832" lon="18.073344">
        <ele>0</ele>
        <time>2020-01-24T06:46:26Z</time>
      </trkpt>
      <trkpt lat="59.328855" lon="18.073348">
        <ele>0</ele>
        <time>2020-01-24T06:46:26Z</time>
      </trkpt>
      <trkpt lat="59.32888" lon="18.073348">
        <ele>0</ele>
        <time>2020-01-24T06:46:27Z</time>
      </trkpt>
      <trkpt lat="59.328906" lon="18.07335">
        <ele>0</ele>
        <time>2020-01-24T06:46:28Z</time>
      </trkpt>
      <trkpt lat="59.32893" lon="18.073355">
        <ele>0</ele>
        <time>2020-01-24T06:46:29Z</time>
      </trkpt>
      <trkpt lat="59.328955" lon="18.073356">
        <ele>0</ele>
        <time>2020-01-24T06:46:30Z</time>
      </trkpt>
      <trkpt lat="59.328982" lon="18.073364">
        <ele>0</ele>
        <time>2020-01-24T06:46:31Z</time>
      </trkpt>
      <trkpt lat="59.329007" lon="18.073376">
        <ele>0</ele>
        <time>2020-01-24T06:46:32Z</time>
      </trkpt>
      <trkpt lat="59.329034" lon="18.073389">
        <ele>0</ele>
        <time>2020-01-24T06:46:34Z</time>
      </trkpt>
      <trkpt lat="59.329062" lon="18.073396">
        <ele>0</ele>
        <time>2020-01-24T06:46:35Z</time>
      </trkpt>
      <trkpt lat="59.32909" lon="18.073402">
        <ele>0</ele>
        <time>2020-01-24T06:46:35Z</time>
      </trkpt>
      <trkpt lat="59.329114" lon="18.073412">
        <ele>0</ele>
        <time>2020-01-24T06:46:37Z</time>
      </trkpt>
      <trkpt lat="59.329137" lon="18.073417">
        <ele>0</ele>
        <time>2020-01-24T06:46:37Z</time>
      </trkpt>
      <trkpt lat="59.32916" lon="18.07342">
        <ele>0</ele>
        <time>2020-01-24T06:46:39Z</time>
      </trkpt>
      <trkpt lat="59.329182" lon="18.073422">
        <ele>0</ele>
        <time>2020-01-24T06:46:39Z</time>
      </trkpt>
      <trkpt lat="59.329205" lon="18.073426">
        <ele>0</ele>
        <time>2020-01-24T06:46:40Z</time>
      </trkpt>
      <trkpt lat="59.329227" lon="18.073432">
        <ele>0</ele>
        <time>2020-01-24T06:46:41Z</time>
      </trkpt>
      <trkpt lat="59.329246" lon="18.073434">
        <ele>0</ele>
        <time>2020-01-24T06:46:42Z</time>
      </trkpt>
      <trkpt lat="59.329285" lon="18.07344">
        <ele>0</ele>
        <time>2020-01-24T06:46:44Z</time>
      </trkpt>
      <trkpt lat="59.329305" lon="18.07346">
        <ele>0</ele>
        <time>2020-01-24T06:46:45Z</time>
      </trkpt>
      <trkpt lat="59.329324" lon="18.073474">
        <ele>0</ele>
        <time>2020-01-24T06:46:47Z</time>
      </trkpt>
      <trkpt lat="59.329344" lon="18.073492">
        <ele>0</ele>
        <time>2020-01-24T06:46:47Z</time>
      </trkpt>
      <trkpt lat="59.329363" lon="18.073508">
        <ele>0</ele>
        <time>2020-01-24T06:46:48Z</time>
      </trkpt>
      <trkpt lat="59.329382" lon="18.073533">
        <ele>0</ele>
        <time>2020-01-24T06:46:49Z</time>
      </trkpt>
      <trkpt lat="59.329399" lon="18.073564">
        <ele>0</ele>
        <time>2020-01-24T06:46:50Z</time>
      </trkpt>
      <trkpt lat="59.329419" lon="18.073598">
        <ele>0</ele>
        <time>2020-01-24T06:46:51Z</time>
      </trkpt>
      <trkpt lat="59.329439" lon="18.07363">
        <ele>0</ele>
        <time>2020-01-24T06:46:52Z</time>
      </trkpt>
      <trkpt lat="59.329459" lon="18.07366">
        <ele>0</ele>
        <time>2020-01-24T06:46:54Z</time>
      </trkpt>
      <trkpt lat="59.32948" lon="18.073683">
        <ele>0</ele>
        <time>2020-01-24T06:46:55Z</time>
      </trkpt>
      <trkpt lat="59.329504" lon="18.0737">
        <ele>0</ele>
        <time>2020-01-24T06:46:55Z</time>
      </trkpt>
      <trkpt lat="59.32953" lon="18.073708">
        <ele>0</ele>
        <time>2020-01-24T06:46:56Z</time>
      </trkpt>
      <trkpt lat="59.329551" lon="18.073704">
        <ele>0</ele>
        <time>2020-01-24T06:46:57Z</time>
      </trkpt>
      <trkpt lat="59.32957" lon="18.073702">
        <ele>0</ele>
        <time>2020-01-24T06:46:58Z</time>
      </trkpt>
      <trkpt lat="59.329591" lon="18.073688">
        <ele>0</ele>
        <time>2020-01-24T06:46:59Z</time>
      </trkpt>
      <trkpt lat="59.329612" lon="18.07366">
        <ele>0</ele>
        <time>2020-01-24T06:47:00Z</time>
      </trkpt>
      <trkpt lat="59.329636" lon="18.073631">
        <ele>0</ele>
        <time>2020-01-24T06:47:01Z</time>
      </trkpt>
      <trkpt lat="59.32966" lon="18.073609">
        <ele>0</ele>
        <time>2020-01-24T06:47:03Z</time>
      </trkpt>
      <trkpt lat="59.329688" lon="18.073591">
        <ele>0</ele>
        <time>2020-01-24T06:47:03Z</time>
      </trkpt>
      <trkpt lat="59.329716" lon="18.073574">
        <ele>0</ele>
        <time>2020-01-24T06:47:04Z</time>
      </trkpt>
      <trkpt lat="59.329743" lon="18.073558">
        <ele>0</ele>
        <time>2020-01-24T06:47:06Z</time>
      </trkpt>
      <trkpt lat="59.329858" lon="18.073463">
        <ele>0</ele>
        <time>2020-01-24T06:47:08Z</time>
      </trkpt>
      <trkpt lat="59.329953" lon="18.073378">
        <ele>0</ele>
        <time>2020-01-24T06:47:11Z</time>
      </trkpt>
      <trkpt lat="59.330067" lon="18.073302">
        <ele>0</ele>
        <time>2020-01-24T06:47:14Z</time>
      </trkpt>
      <trkpt lat="59.330176" lon="18.073258">
        <ele>0</ele>
        <time>2020-01-24T06:47:17Z</time>
      </trkpt>
      <trkpt lat="59.330273" lon="18.07323">
        <ele>0</ele>
        <time>2020-01-24T06:47:20Z</time>
      </trkpt>
      <trkpt lat="59.330375" lon="18.073159">
        <ele>0</ele>
        <time>2020-01-24T06:47:23Z</time>
      </trkpt>
      <trkpt lat="59.330402" lon="18.073136">
        <ele>0</ele>
        <time>2020-01-24T06:47:24Z</time>
      </trkpt>
      <trkpt lat="59.330435" lon="18.073116">
        <ele>0</ele>
        <time>2020-01-24T06:47:25Z</time>
      </trkpt>
      <trkpt lat="59.330532" lon="18.073104">
        <ele>0</ele>
        <time>2020-01-24T06:47:29Z</time>
      </trkpt>
      <trkpt lat="59.330564" lon="18.073159">
        <ele>0</ele>
        <time>2020-01-24T06:47:30Z</time>
      </trkpt>
      <trkpt lat="59.330587" lon="18.073214">
        <ele>0</ele>
        <time>2020-01-24T06:47:32Z</time>
      </trkpt>
      <trkpt lat="59.33061" lon="18.073273">
        <ele>0</ele>
        <time>2020-01-24T06:47:32Z</time>
      </trkpt>
      <trkpt lat="59.330629" lon="18.073329">
        <ele>0</ele>
        <time>2020-01-24T06:47:34Z</time>
      </trkpt>
      <trkpt lat="59.330639" lon="18.073393">
        <ele>0</ele>
        <time>2020-01-24T06:47:34Z</time>
      </trkpt>
      <trkpt lat="59.330648" lon="18.073464">
        <ele>0</ele>
        <time>2020-01-24T06:47:35Z</time>
      </trkpt>
      <trkpt lat="59.330659" lon="18.073523">
        <ele>0</ele>
        <time>2020-01-24T06:47:36Z</time>
      </trkpt>
      <trkpt lat="59.330668" lon="18.073586">
        <ele>0</ele>
        <time>2020-01-24T06:47:37Z</time>
      </trkpt>
      <trkpt lat="59.33068" lon="18.073659">
        <ele>0</ele>
        <time>2020-01-24T06:47:38Z</time>
      </trkpt>
      <trkpt lat="59.330691" lon="18.073724">
        <ele>0</ele>
        <time>2020-01-24T06:47:39Z</time>
      </trkpt>
      <trkpt lat="59.330702" lon="18.073781">
        <ele>0</ele>
        <time>2020-01-24T06:47:41Z</time>
      </trkpt>
      <trkpt lat="59.330712" lon="18.073834">
        <ele>0</ele>
        <time>2020-01-24T06:47:41Z</time>
      </trkpt>
      <trkpt lat="59.330719" lon="18.073894">
        <ele>0</ele>
        <time>2020-01-24T06:47:42Z</time>
      </trkpt>
      <trkpt lat="59.330733" lon="18.073957">
        <ele>0</ele>
        <time>2020-01-24T06:47:43Z</time>
      </trkpt>
      <trkpt lat="59.330748" lon="18.074024">
        <ele>0</ele>
        <time>2020-01-24T06:47:44Z</time>
      </trkpt>
      <trkpt lat="59.330761" lon="18.074082">
        <ele>0</ele>
        <time>2020-01-24T06:47:46Z</time>
      </trkpt>
      <trkpt lat="59.33078" lon="18.074139">
        <ele>0</ele>
        <time>2020-01-24T06:47:46Z</time>
      </trkpt>
      <trkpt lat="59.330824" lon="18.074323">
        <ele>0</ele>
        <time>2020-01-24T06:47:49Z</time>
      </trkpt>
      <trkpt lat="59.330862" lon="18.074491">
        <ele>0</ele>
        <time>2020-01-24T06:47:52Z</time>
      </trkpt>
      <trkpt lat="59.330897" lon="18.074689">
        <ele>0</ele>
        <time>2020-01-24T06:47:56Z</time>
      </trkpt>
      <trkpt lat="59.330938" lon="18.07488">
        <ele>0</ele>
        <time>2020-01-24T06:48:00Z</time>
      </trkpt>
      <trkpt lat="59.331015" lon="18.074994">
        <ele>0</ele>
        <time>2020-01-24T06:48:03Z</time>
      </trkpt>
      <trkpt lat="59.331101" lon="18.075087">
        <ele>0</ele>
        <time>2020-01-24T06:48:06Z</time>
      </trkpt>
      <trkpt lat="59.331182" lon="18.075199">
        <ele>0</ele>
        <time>2020-01-24T06:48:10Z</time>
      </trkpt>
      <trkpt lat="59.331283" lon="18.075213">
        <ele>0</ele>
        <time>2020-01-24T06:48:12Z</time>
      </trkpt>
      <trkpt lat="59.331383" lon="18.075243">
        <ele>0</ele>
        <time>2020-01-24T06:48:15Z</time>
      </trkpt>
      <trkpt lat="59.33149" lon="18.075282">
        <ele>0</ele>
        <time>2020-01-24T06:48:18Z</time>
      </trkpt>
      <trkpt lat="59.331623" lon="18.075333">
        <ele>0</ele>
        <time>2020-01-24T06:48:20Z</time>
      </trkpt>
      <trkpt lat="59.331723" lon="18.075248">
        <ele>0</ele>
        <time>2020-01-24T06:48:21Z</time>
      </trkpt>
      <trkpt lat="59.331807" lon="18.075372">
        <ele>0</ele>
        <time>2020-01-24T06:48:25Z</time>
      </trkpt>
      <trkpt lat="59.331828" lon="18.075399">
        <ele>0</ele>
        <time>2020-01-24T06:48:26Z</time>
      </trkpt>
      <trkpt lat="59.33185" lon="18.075422">
        <ele>0</ele>
        <time>2020-01-24T06:48:27Z</time>
      </trkpt>
      <trkpt lat="59.331868" lon="18.075468">
        <ele>0</ele>
        <time>2020-01-24T06:48:29Z</time>
      </trkpt>
      <trkpt lat="59.331885" lon="18.075501">
        <ele>0</ele>
        <time>2020-01-24T06:48:29Z</time>
      </trkpt>
      <trkpt lat="59.331901" lon="18.075547">
        <ele>0</ele>
        <time>2020-01-24T06:48:31Z</time>
      </trkpt>
      <trkpt lat="59.331917" lon="18.07558">
        <ele>0</ele>
        <time>2020-01-24T06:48:31Z</time>
      </trkpt>
      <trkpt lat="59.331936" lon="18.07563">
        <ele>0</ele>
        <time>2020-01-24T06:48:33Z</time>
      </trkpt>
      <trkpt lat="59.331947" lon="18.07566">
        <ele>0</ele>
        <time>2020-01-24T06:48:34Z</time>
      </trkpt>
      <trkpt lat="59.331965" lon="18.075708">
        <ele>0</ele>
        <time>2020-01-24T06:48:36Z</time>
      </trkpt>
      <trkpt lat="59.331977" lon="18.075742">
        <ele>0</ele>
        <time>2020-01-24T06:48:37Z</time>
      </trkpt>
      <trkpt lat="59.331993" lon="18.07578">
        <ele>0</ele>
        <time>2020-01-24T06:48:38Z</time>
      </trkpt>
      <trkpt lat="59.332006" lon="18.075816">
        <ele>0</ele>
        <time>2020-01-24T06:48:39Z</time>
      </trkpt>
      <trkpt lat="59.332023" lon="18.075856">
        <ele>0</ele>
        <time>2020-01-24T06:48:40Z</time>
      </trkpt>
      <trkpt lat="59.33204" lon="18.075891">
        <ele>0</ele>
        <time>2020-01-24T06:48:42Z</time>
      </trkpt>
      <trkpt lat="59.332056" lon="18.075927">
        <ele>0</ele>
        <time>2020-01-24T06:48:42Z</time>
      </trkpt>
      <trkpt lat="59.332074" lon="18.075969">
        <ele>0</ele>
        <time>2020-01-24T06:48:43Z</time>
      </trkpt>
      <trkpt lat="59.332091" lon="18.076006">
        <ele>0</ele>
        <time>2020-01-24T06:48:45Z</time>
      </trkpt>
      <trkpt lat="59.332107" lon="18.076052">
        <ele>0</ele>
        <time>2020-01-24T06:48:45Z</time>
      </trkpt>
      <trkpt lat="59.332124" lon="18.076087">
        <ele>0</ele>
        <time>2020-01-24T06:48:46Z</time>
      </trkpt>
      <trkpt lat="59.33214" lon="18.07612">
        <ele>0</ele>
        <time>2020-01-24T06:48:48Z</time>
      </trkpt>
      <trkpt lat="59.332152" lon="18.076155">
        <ele>0</ele>
        <time>2020-01-24T06:48:48Z</time>
      </trkpt>
      <trkpt lat="59.332166" lon="18.076187">
        <ele>0</ele>
        <time>2020-01-24T06:48:49Z</time>
      </trkpt>
      <trkpt lat="59.332181" lon="18.076224">
        <ele>0</ele>
        <time>2020-01-24T06:48:50Z</time>
      </trkpt>
      <trkpt lat="59.332193" lon="18.076264">
        <ele>0</ele>
        <time>2020-01-24T06:48:51Z</time>
      </trkpt>
      <trkpt lat="59.332209" lon="18.076297">
        <ele>0</ele>
        <time>2020-01-24T06:48:52Z</time>
      </trkpt>
      <trkpt lat="59.332222" lon="18.07633">
        <ele>0</ele>
        <time>2020-01-24T06:48:53Z</time>
      </trkpt>
      <trkpt lat="59.332235" lon="18.076363">
        <ele>0</ele>
        <time>2020-01-24T06:48:54Z</time>
      </trkpt>
      <trkpt lat="59.33225" lon="18.076402">
        <ele>0</ele>
        <time>2020-01-24T06:48:55Z</time>
      </trkpt>
      <trkpt lat="59.332266" lon="18.076434">
        <ele>0</ele>
        <time>2020-01-24T06:48:56Z</time>
      </trkpt>
      <trkpt lat="59.332281" lon="18.076465">
        <ele>0</ele>
        <time>2020-01-24T06:48:57Z</time>
      </trkpt>
      <trkpt lat="59.332297" lon="18.076501">
        <ele>0</ele>
        <time>2020-01-24T06:48:58Z</time>
      </trkpt>
      <trkpt lat="59.332311" lon="18.076544">
        <ele>0</ele>
        <time>2020-01-24T06:48:59Z</time>
      </trkpt>
      <trkpt lat="59.332324" lon="18.076588">
        <ele>0</ele>
        <time>2020-01-24T06:49:00Z</time>
      </trkpt>
      <trkpt lat="59.332345" lon="18.07665">
        <ele>0</ele>
        <time>2020-01-24T06:49:02Z</time>
      </trkpt>
      <trkpt lat="59.33236" lon="18.076688">
        <ele>0</ele>
        <time>2020-01-24T06:49:03Z</time>
      </trkpt>
      <trkpt lat="59.332373" lon="18.076726">
        <ele>0</ele>
        <time>2020-01-24T06:49:04Z</time>
      </trkpt>
      <trkpt lat="59.332383" lon="18.076758">
        <ele>0</ele>
        <time>2020-01-24T06:49:05Z</time>
      </trkpt>
      <trkpt lat="59.332395" lon="18.076796">
        <ele>0</ele>
        <time>2020-01-24T06:49:07Z</time>
      </trkpt>
      <trkpt lat="59.332416" lon="18.076854">
        <ele>0</ele>
        <time>2020-01-24T06:49:10Z</time>
      </trkpt>
      <trkpt lat="59.332434" lon="18.0769">
        <ele>0</ele>
        <time>2020-01-24T06:49:11Z</time>
      </trkpt>
      <trkpt lat="59.33244" lon="18.076949">
        <ele>0</ele>
        <time>2020-01-24T06:49:12Z</time>
      </trkpt>
      <trkpt lat="59.332435" lon="18.076994">
        <ele>0</ele>
        <time>2020-01-24T06:49:13Z</time>
      </trkpt>
      <trkpt lat="59.332444" lon="18.077041">
        <ele>0</ele>
        <time>2020-01-24T06:49:15Z</time>
      </trkpt>
      <trkpt lat="59.332462" lon="18.077056">
        <ele>0</ele>
        <time>2020-01-24T06:49:16Z</time>
      </trkpt>
      <trkpt lat="59.332482" lon="18.077082">
        <ele>0</ele>
        <time>2020-01-24T06:49:18Z</time>
      </trkpt>
      <trkpt lat="59.332509" lon="18.077136">
        <ele>0</ele>
        <time>2020-01-24T06:49:19Z</time>
      </trkpt>
      <trkpt lat="59.332532" lon="18.077154">
        <ele>0</ele>
        <time>2020-01-24T06:49:20Z</time>
      </trkpt>
      <trkpt lat="59.332556" lon="18.077168">
        <ele>0</ele>
        <time>2020-01-24T06:49:21Z</time>
      </trkpt>
      <trkpt lat="59.332581" lon="18.07719">
        <ele>0</ele>
        <time>2020-01-24T06:49:22Z</time>
      </trkpt>
      <trkpt lat="59.332607" lon="18.077205">
        <ele>0</ele>
        <time>2020-01-24T06:49:23Z</time>
      </trkpt>
      <trkpt lat="59.332638" lon="18.077224">
        <ele>0</ele>
        <time>2020-01-24T06:49:24Z</time>
      </trkpt>
      <trkpt lat="59.332669" lon="18.077242">
        <ele>0</ele>
        <time>2020-01-24T06:49:26Z</time>
      </trkpt>
      <trkpt lat="59.332699" lon="18.077268">
        <ele>0</ele>
        <time>2020-01-24T06:49:26Z</time>
      </trkpt>
      <trkpt lat="59.332725" lon="18.077296">
        <ele>0</ele>
        <time>2020-01-24T06:49:27Z</time>
      </trkpt>
      <trkpt lat="59.332756" lon="18.077324">
        <ele>0</ele>
        <time>2020-01-24T06:49:29Z</time>
      </trkpt>
      <trkpt lat="59.332789" lon="18.07735">
        <ele>0</ele>
        <time>2020-01-24T06:49:29Z</time>
      </trkpt>
      <trkpt lat="59.332818" lon="18.077366">
        <ele>0</ele>
        <time>2020-01-24T06:49:30Z</time>
      </trkpt>
      <trkpt lat="59.332843" lon="18.077384">
        <ele>0</ele>
        <time>2020-01-24T06:49:31Z</time>
      </trkpt>
      <trkpt lat="59.332864" lon="18.077412">
        <ele>0</ele>
        <time>2020-01-24T06:49:32Z</time>
      </trkpt>
      <trkpt lat="59.332881" lon="18.077448">
        <ele>0</ele>
        <time>2020-01-24T06:49:33Z</time>
      </trkpt>
      <trkpt lat="59.332899" lon="18.077484">
        <ele>0</ele>
        <time>2020-01-24T06:49:34Z</time>
      </trkpt>
      <trkpt lat="59.332918" lon="18.077524">
        <ele>0</ele>
        <time>2020-01-24T06:49:35Z</time>
      </trkpt>
      <trkpt lat="59.332942" lon="18.077558">
        <ele>0</ele>
        <time>2020-01-24T06:49:37Z</time>
      </trkpt>
      <trkpt lat="59.332966" lon="18.07758">
        <ele>0</ele>
        <time>2020-01-24T06:49:37Z</time>
      </trkpt>
      <trkpt lat="59.332981" lon="18.077612">
        <ele>0</ele>
        <time>2020-01-24T06:49:38Z</time>
      </trkpt>
      <trkpt lat="59.333042" lon="18.07779">
        <ele>0</ele>
        <time>2020-01-24T06:49:43Z</time>
      </trkpt>
      <trkpt lat="59.333109" lon="18.077929">
        <ele>0</ele>
        <time>2020-01-24T06:49:47Z</time>
      </trkpt>
      <trkpt lat="59.333217" lon="18.077929">
        <ele>0</ele>
        <time>2020-01-24T06:49:52Z</time>
      </trkpt>
      <trkpt lat="59.333313" lon="18.077871">
        <ele>0</ele>
        <time>2020-01-24T06:49:54Z</time>
      </trkpt>
      <trkpt lat="59.333398" lon="18.077946">
        <ele>0</ele>
        <time>2020-01-24T06:49:58Z</time>
      </trkpt>
      <trkpt lat="59.333462" lon="18.078117">
        <ele>0</ele>
        <time>2020-01-24T06:50:04Z</time>
      </trkpt>
      <trkpt lat="59.333517" lon="18.078298">
        <ele>0</ele>
        <time>2020-01-24T06:50:09Z</time>
      </trkpt>
      <trkpt lat="59.333607" lon="18.078409">
        <ele>0</ele>
        <time>2020-01-24T06:50:12Z</time>
      </trkpt>
      <trkpt lat="59.333719" lon="18.07845">
        <ele>0</ele>
        <time>2020-01-24T06:50:17Z</time>
      </trkpt>
      <trkpt lat="59.333813" lon="18.078467">
        <ele>0</ele>
        <time>2020-01-24T06:50:23Z</time>
      </trkpt>
      <trkpt lat="59.333915" lon="18.078458">
        <ele>0</ele>
        <time>2020-01-24T06:50:26Z</time>
      </trkpt>
      <trkpt lat="59.334007" lon="18.078526">
        <ele>0</ele>
        <time>2020-01-24T06:50:31Z</time>
      </trkpt>
      <trkpt lat="59.334091" lon="18.078643">
        <ele>0</ele>
        <time>2020-01-24T06:50:35Z</time>
      </trkpt>
      <trkpt lat="59.334183" lon="18.07871">
        <ele>0</ele>
        <time>2020-01-24T06:50:39Z</time>
      </trkpt>
      <trkpt lat="59.334251" lon="18.078828">
        <ele>0</ele>
        <time>2020-01-24T06:50:42Z</time>
      </trkpt>
      <trkpt lat="59.334334" lon="18.078931">
        <ele>0</ele>
        <time>2020-01-24T06:50:46Z</time>
      </trkpt>
      <trkpt lat="59.334426" lon="18.07901">
        <ele>0</ele>
        <time>2020-01-24T06:50:50Z</time>
      </trkpt>
      <trkpt lat="59.334539" lon="18.079049">
        <ele>0</ele>
        <time>2020-01-24T06:50:55Z</time>
      </trkpt>
      <trkpt lat="59.33462" lon="18.079203">
        <ele>0</ele>
        <time>2020-01-24T06:50:59Z</time>
      </trkpt>
      <trkpt lat="59.334714" lon="18.079247">
        <ele>0</ele>
        <time>2020-01-24T06:51:02Z</time>
      </trkpt>
      <trkpt lat="59.334819" lon="18.079337">
        <ele>0</ele>
        <time>2020-01-24T06:51:06Z</time>
      </trkpt>
      <trkpt lat="59.334885" lon="18.079484">
        <ele>1</ele>
        <time>2020-01-24T06:51:11Z</time>
      </trkpt>
      <trkpt lat="59.334965" lon="18.079568">
        <ele>1</ele>
        <time>2020-01-24T06:51:13Z</time>
      </trkpt>
      <trkpt lat="59.335061" lon="18.079648">
        <ele>1</ele>
        <time>2020-01-24T06:51:17Z</time>
      </trkpt>
      <trkpt lat="59.335136" lon="18.079775">
        <ele>2</ele>
        <time>2020-01-24T06:51:22Z</time>
      </trkpt>
      <trkpt lat="59.335271" lon="18.079794">
        <ele>2</ele>
        <time>2020-01-24T06:51:27Z</time>
      </trkpt>
      <trkpt lat="59.335375" lon="18.079699">
        <ele>2</ele>
        <time>2020-01-24T06:51:28Z</time>
      </trkpt>
      <trkpt lat="59.335499" lon="18.079671">
        <ele>2</ele>
        <time>2020-01-24T06:51:31Z</time>
      </trkpt>
      <trkpt lat="59.335593" lon="18.079701">
        <ele>2</ele>
        <time>2020-01-24T06:51:36Z</time>
      </trkpt>
      <trkpt lat="59.335627" lon="18.079721">
        <ele>3</ele>
        <time>2020-01-24T06:51:37Z</time>
      </trkpt>
      <trkpt lat="59.33566" lon="18.079767">
        <ele>3</ele>
        <time>2020-01-24T06:51:39Z</time>
      </trkpt>
      <trkpt lat="59.335678" lon="18.079782">
        <ele>4</ele>
        <time>2020-01-24T06:51:40Z</time>
      </trkpt>
      <trkpt lat="59.3357" lon="18.079794">
        <ele>4</ele>
        <time>2020-01-24T06:51:41Z</time>
      </trkpt>
      <trkpt lat="59.335727" lon="18.079805">
        <ele>4</ele>
        <time>2020-01-24T06:51:42Z</time>
      </trkpt>
      <trkpt lat="59.33575" lon="18.079804">
        <ele>5</ele>
        <time>2020-01-24T06:51:44Z</time>
      </trkpt>
      <trkpt lat="59.335771" lon="18.079802">
        <ele>6</ele>
        <time>2020-01-24T06:51:45Z</time>
      </trkpt>
      <trkpt lat="59.335799" lon="18.079817">
        <ele>6</ele>
        <time>2020-01-24T06:51:45Z</time>
      </trkpt>
      <trkpt lat="59.335827" lon="18.079837">
        <ele>7</ele>
        <time>2020-01-24T06:51:46Z</time>
      </trkpt>
      <trkpt lat="59.335853" lon="18.079845">
        <ele>7</ele>
        <time>2020-01-24T06:51:47Z</time>
      </trkpt>
      <trkpt lat="59.335918" lon="18.07987">
        <ele>7</ele>
        <time>2020-01-24T06:51:49Z</time>
      </trkpt>
      <trkpt lat="59.335951" lon="18.079873">
        <ele>7</ele>
        <time>2020-01-24T06:51:50Z</time>
      </trkpt>
      <trkpt lat="59.335977" lon="18.079874">
        <ele>7</ele>
        <time>2020-01-24T06:51:51Z</time>
      </trkpt>
      <trkpt lat="59.335995" lon="18.079901">
        <ele>7</ele>
        <time>2020-01-24T06:51:53Z</time>
      </trkpt>
      <trkpt lat="59.336021" lon="18.079908">
        <ele>7</ele>
        <time>2020-01-24T06:51:53Z</time>
      </trkpt>
      <trkpt lat="59.33604" lon="18.079928">
        <ele>8</ele>
        <time>2020-01-24T06:51:54Z</time>
      </trkpt>
      <trkpt lat="59.336059" lon="18.079947">
        <ele>8</ele>
        <time>2020-01-24T06:51:56Z</time>
      </trkpt>
      <trkpt lat="59.336078" lon="18.079968">
        <ele>8</ele>
        <time>2020-01-24T06:51:56Z</time>
      </trkpt>
      <trkpt lat="59.336098" lon="18.079995">
        <ele>8</ele>
        <time>2020-01-24T06:51:58Z</time>
      </trkpt>
      <trkpt lat="59.336112" lon="18.080028">
        <ele>8</ele>
        <time>2020-01-24T06:51:58Z</time>
      </trkpt>
      <trkpt lat="59.336123" lon="18.080062">
        <ele>8</ele>
        <time>2020-01-24T06:51:59Z</time>
      </trkpt>
      <trkpt lat="59.336139" lon="18.080092">
        <ele>8</ele>
        <time>2020-01-24T06:52:00Z</time>
      </trkpt>
      <trkpt lat="59.336155" lon="18.080116">
        <ele>9</ele>
        <time>2020-01-24T06:52:01Z</time>
      </trkpt>
      <trkpt lat="59.336243" lon="18.08022">
        <ele>10</ele>
        <time>2020-01-24T06:52:06Z</time>
      </trkpt>
      <trkpt lat="59.336318" lon="18.080339">
        <ele>11</ele>
        <time>2020-01-24T06:52:11Z</time>
      </trkpt>
      <trkpt lat="59.336404" lon="18.080465">
        <ele>11</ele>
        <time>2020-01-24T06:52:17Z</time>
      </trkpt>
      <trkpt lat="59.336488" lon="18.08056">
        <ele>12</ele>
        <time>2020-01-24T06:52:20Z</time>
      </trkpt>
      <trkpt lat="59.336577" lon="18.080625">
        <ele>12</ele>
        <time>2020-01-24T06:52:25Z</time>
      </trkpt>
      <trkpt lat="59.336685" lon="18.08073">
        <ele>14</ele>
        <time>2020-01-24T06:52:28Z</time>
      </trkpt>
      <trkpt lat="59.336809" lon="18.080701">
        <ele>15</ele>
        <time>2020-01-24T06:52:31Z</time>
      </trkpt>
      <trkpt lat="59.336922" lon="18.080742">
        <ele>15</ele>
        <time>2020-01-24T06:52:34Z</time>
      </trkpt>
      <trkpt lat="59.337003" lon="18.080828">
        <ele>16</ele>
        <time>2020-01-24T06:52:37Z</time>
      </trkpt>
      <trkpt lat="59.337111" lon="18.080873">
        <ele>16</ele>
        <time>2020-01-24T06:52:41Z</time>
      </trkpt>
      <trkpt lat="59.33721" lon="18.080969">
        <ele>16</ele>
        <time>2020-01-24T06:52:45Z</time>
      </trkpt>
      <trkpt lat="59.337309" lon="18.081058">
        <ele>16</ele>
        <time>2020-01-24T06:52:49Z</time>
      </trkpt>
      <trkpt lat="59.337406" lon="18.081142">
        <ele>16</ele>
        <time>2020-01-24T06:52:55Z</time>
      </trkpt>
      <trkpt lat="59.337496" lon="18.081272">
        <ele>17</ele>
        <time>2020-01-24T06:52:59Z</time>
      </trkpt>
      <trkpt lat="59.337589" lon="18.081344">
        <ele>17</ele>
        <time>2020-01-24T06:53:03Z</time>
      </trkpt>
      <trkpt lat="59.337702" lon="18.081377">
        <ele>17</ele>
        <time>2020-01-24T06:53:06Z</time>
      </trkpt>
      <trkpt lat="59.337794" lon="18.081415">
        <ele>18</ele>
        <time>2020-01-24T06:53:09Z</time>
      </trkpt>
      <trkpt lat="59.337908" lon="18.081468">
        <ele>18</ele>
        <time>2020-01-24T06:53:14Z</time>
      </trkpt>
      <trkpt lat="59.337991" lon="18.081554">
        <ele>17</ele>
        <time>2020-01-24T06:53:15Z</time>
      </trkpt>
      <trkpt lat="59.338084" lon="18.081664">
        <ele>18</ele>
        <time>2020-01-24T06:53:18Z</time>
      </trkpt>
      <trkpt lat="59.338123" lon="18.081729">
        <ele>19</ele>
        <time>2020-01-24T06:53:20Z</time>
      </trkpt>
      <trkpt lat="59.338145" lon="18.081759">
        <ele>19</ele>
        <time>2020-01-24T06:53:21Z</time>
      </trkpt>
      <trkpt lat="59.338163" lon="18.081776">
        <ele>19</ele>
        <time>2020-01-24T06:53:22Z</time>
      </trkpt>
      <trkpt lat="59.338199" lon="18.08179">
        <ele>19</ele>
        <time>2020-01-24T06:53:26Z</time>
      </trkpt>
      <trkpt lat="59.338219" lon="18.081811">
        <ele>19</ele>
        <time>2020-01-24T06:53:26Z</time>
      </trkpt>
      <trkpt lat="59.338305" lon="18.081915">
        <ele>19</ele>
        <time>2020-01-24T06:53:30Z</time>
      </trkpt>
      <trkpt lat="59.338404" lon="18.082007">
        <ele>19</ele>
        <time>2020-01-24T06:53:35Z</time>
      </trkpt>
      <trkpt lat="59.338492" lon="18.082116">
        <ele>19</ele>
        <time>2020-01-24T06:53:39Z</time>
      </trkpt>
      <trkpt lat="59.3386" lon="18.082192">
        <ele>19</ele>
        <time>2020-01-24T06:53:43Z</time>
      </trkpt>
      <trkpt lat="59.338693" lon="18.082286">
        <ele>19</ele>
        <time>2020-01-24T06:53:47Z</time>
      </trkpt>
      <trkpt lat="59.338786" lon="18.082332">
        <ele>18</ele>
        <time>2020-01-24T06:53:50Z</time>
      </trkpt>
      <trkpt lat="59.338914" lon="18.082439">
        <ele>18</ele>
        <time>2020-01-24T06:53:53Z</time>
      </trkpt>
      <trkpt lat="59.339008" lon="18.08254">
        <ele>18</ele>
        <time>2020-01-24T06:53:55Z</time>
      </trkpt>
      <trkpt lat="59.339039" lon="18.082563">
        <ele>18</ele>
        <time>2020-01-24T06:53:57Z</time>
      </trkpt>
      <trkpt lat="59.339076" lon="18.082578">
        <ele>19</ele>
        <time>2020-01-24T06:54:00Z</time>
      </trkpt>
      <trkpt lat="59.339097" lon="18.082595">
        <ele>19</ele>
        <time>2020-01-24T06:54:00Z</time>
      </trkpt>
      <trkpt lat="59.339115" lon="18.082604">
        <ele>20</ele>
        <time>2020-01-24T06:54:01Z</time>
      </trkpt>
      <trkpt lat="59.339137" lon="18.08264">
        <ele>20</ele>
        <time>2020-01-24T06:54:03Z</time>
      </trkpt>
      <trkpt lat="59.339154" lon="18.082676">
        <ele>21</ele>
        <time>2020-01-24T06:54:03Z</time>
      </trkpt>
      <trkpt lat="59.339172" lon="18.0827">
        <ele>22</ele>
        <time>2020-01-24T06:54:04Z</time>
      </trkpt>
      <trkpt lat="59.339183" lon="18.082751">
        <ele>23</ele>
        <time>2020-01-24T06:54:05Z</time>
      </trkpt>
      <trkpt lat="59.33918" lon="18.082821">
        <ele>23</ele>
        <time>2020-01-24T06:54:06Z</time>
      </trkpt>
      <trkpt lat="59.339173" lon="18.082893">
        <ele>23</ele>
        <time>2020-01-24T06:54:07Z</time>
      </trkpt>
      <trkpt lat="59.339164" lon="18.082951">
        <ele>23</ele>
        <time>2020-01-24T06:54:08Z</time>
      </trkpt>
      <trkpt lat="59.339159" lon="18.083006">
        <ele>23</ele>
        <time>2020-01-24T06:54:09Z</time>
      </trkpt>
      <trkpt lat="59.339152" lon="18.083068">
        <ele>23</ele>
        <time>2020-01-24T06:54:11Z</time>
      </trkpt>
      <trkpt lat="59.339149" lon="18.083133">
        <ele>23</ele>
        <time>2020-01-24T06:54:12Z</time>
      </trkpt>
      <trkpt lat="59.339144" lon="18.083201">
        <ele>23</ele>
        <time>2020-01-24T06:54:12Z</time>
      </trkpt>
      <trkpt lat="59.339136" lon="18.083259">
        <ele>23</ele>
        <time>2020-01-24T06:54:13Z</time>
      </trkpt>
      <trkpt lat="59.339134" lon="18.083315">
        <ele>23</ele>
        <time>2020-01-24T06:54:14Z</time>
      </trkpt>
      <trkpt lat="59.339131" lon="18.083366">
        <ele>23</ele>
        <time>2020-01-24T06:54:15Z</time>
      </trkpt>
      <trkpt lat="59.339134" lon="18.083405">
        <ele>23</ele>
        <time>2020-01-24T06:54:16Z</time>
      </trkpt>
      <trkpt lat="59.339134" lon="18.08345">
        <ele>23</ele>
        <time>2020-01-24T06:54:17Z</time>
      </trkpt>
      <trkpt lat="59.339139" lon="18.083495">
        <ele>23</ele>
        <time>2020-01-24T06:54:18Z</time>
      </trkpt>
      <trkpt lat="59.339151" lon="18.08353">
        <ele>23</ele>
        <time>2020-01-24T06:54:20Z</time>
      </trkpt>
      <trkpt lat="59.339166" lon="18.08356">
        <ele>23</ele>
        <time>2020-01-24T06:54:20Z</time>
      </trkpt>
      <trkpt lat="59.339252" lon="18.083695">
        <ele>23</ele>
        <time>2020-01-24T06:54:26Z</time>
      </trkpt>
      <trkpt lat="59.339317" lon="18.083839">
        <ele>23</ele>
        <time>2020-01-24T06:54:31Z</time>
      </trkpt>
      <trkpt lat="59.339403" lon="18.08393">
        <ele>22</ele>
        <time>2020-01-24T06:54:35Z</time>
      </trkpt>
      <trkpt lat="59.339486" lon="18.084027">
        <ele>22</ele>
        <time>2020-01-24T06:54:38Z</time>
      </trkpt>
      <trkpt lat="59.339581" lon="18.084131">
        <ele>22</ele>
        <time>2020-01-24T06:54:41Z</time>
      </trkpt>
      <trkpt lat="59.339663" lon="18.084242">
        <ele>22</ele>
        <time>2020-01-24T06:54:45Z</time>
      </trkpt>
      <trkpt lat="59.339756" lon="18.084337">
        <ele>22</ele>
        <time>2020-01-24T06:54:49Z</time>
      </trkpt>
      <trkpt lat="59.339851" lon="18.084428">
        <ele>22</ele>
        <time>2020-01-24T06:54:52Z</time>
      </trkpt>
      <trkpt lat="59.339945" lon="18.08455">
        <ele>21</ele>
        <time>2020-01-24T06:54:55Z</time>
      </trkpt>
      <trkpt lat="59.340032" lon="18.084665">
        <ele>21</ele>
        <time>2020-01-24T06:54:59Z</time>
      </trkpt>
      <trkpt lat="59.340117" lon="18.084782">
        <ele>21</ele>
        <time>2020-01-24T06:55:02Z</time>
      </trkpt>
      <trkpt lat="59.340235" lon="18.084839">
        <ele>21</ele>
        <time>2020-01-24T06:55:03Z</time>
      </trkpt>
      <trkpt lat="59.340338" lon="18.08486">
        <ele>22</ele>
        <time>2020-01-24T06:55:06Z</time>
      </trkpt>
      <trkpt lat="59.340313" lon="18.085037">
        <ele>0</ele>
        <time>2020-01-24T06:55:10Z</time>
      </trkpt>
    </trkseg>
  </trk>
</gpx>